<?xml version="1.0" encoding="UTF-8" standalone="no" ?>
<gpx xmlns="http://www.topografix.com/GPX/1/1" xmlns:xsi="http://www.w3.org/2001/XMLSchema-instance" xsi:schemaLocation="http://www.topografix.com/GPX/1/1 http://www.topografix.com/GPX/1/1/gpx.xsd" version="1.1" creator="VisuGPX - https://www.visugpx.com">
  <metadata>
    <name>Footing TREBAS LES BAINS</name>
    <desc><![CDATA[Petit footing du matin dans les hauts de TREBAS LES BAINS.]]></desc>
  </metadata>
  <trk>
    <name><![CDATA[Trebas]]></name>
    <trkseg>
      <trkpt lat="43.94883" lon="2.49349">
        <ele>345</ele>
        <time>2017-06-26T06:36:20Z</time>
      </trkpt>
      <trkpt lat="43.94885" lon="2.49351">
        <ele>345</ele>
        <time>2017-06-26T06:36:48Z</time>
      </trkpt>
      <trkpt lat="43.94885" lon="2.49351">
        <ele>346</ele>
        <time>2017-06-26T06:36:50Z</time>
      </trkpt>
      <trkpt lat="43.94885" lon="2.49352">
        <ele>346</ele>
        <time>2017-06-26T06:37:08Z</time>
      </trkpt>
      <trkpt lat="43.94881" lon="2.49347">
        <ele>347</ele>
        <time>2017-06-26T06:37:34Z</time>
      </trkpt>
      <trkpt lat="43.94876" lon="2.49341">
        <ele>348</ele>
        <time>2017-06-26T06:37:35Z</time>
      </trkpt>
      <trkpt lat="43.94867" lon="2.49311">
        <ele>349</ele>
        <time>2017-06-26T06:37:36Z</time>
      </trkpt>
      <trkpt lat="43.94861" lon="2.49313">
        <ele>350</ele>
        <time>2017-06-26T06:37:38Z</time>
      </trkpt>
      <trkpt lat="43.94856" lon="2.49314">
        <ele>350</ele>
        <time>2017-06-26T06:37:40Z</time>
      </trkpt>
      <trkpt lat="43.9485" lon="2.49311">
        <ele>350</ele>
        <time>2017-06-26T06:37:43Z</time>
      </trkpt>
      <trkpt lat="43.94846" lon="2.49306">
        <ele>348</ele>
        <time>2017-06-26T06:37:45Z</time>
      </trkpt>
      <trkpt lat="43.94844" lon="2.493">
        <ele>346</ele>
        <time>2017-06-26T06:37:47Z</time>
      </trkpt>
      <trkpt lat="43.94841" lon="2.49294">
        <ele>345</ele>
        <time>2017-06-26T06:37:49Z</time>
      </trkpt>
      <trkpt lat="43.94838" lon="2.49286">
        <ele>343</ele>
        <time>2017-06-26T06:37:52Z</time>
      </trkpt>
      <trkpt lat="43.94836" lon="2.49279">
        <ele>342</ele>
        <time>2017-06-26T06:37:54Z</time>
      </trkpt>
      <trkpt lat="43.94835" lon="2.49271">
        <ele>342</ele>
        <time>2017-06-26T06:37:56Z</time>
      </trkpt>
      <trkpt lat="43.94834" lon="2.49263">
        <ele>342</ele>
        <time>2017-06-26T06:37:58Z</time>
      </trkpt>
      <trkpt lat="43.94831" lon="2.49256">
        <ele>341</ele>
        <time>2017-06-26T06:38:00Z</time>
      </trkpt>
      <trkpt lat="43.94828" lon="2.49249">
        <ele>342</ele>
        <time>2017-06-26T06:38:02Z</time>
      </trkpt>
      <trkpt lat="43.94832" lon="2.49242">
        <ele>342</ele>
        <time>2017-06-26T06:38:06Z</time>
      </trkpt>
      <trkpt lat="43.94836" lon="2.49238">
        <ele>342</ele>
        <time>2017-06-26T06:38:08Z</time>
      </trkpt>
      <trkpt lat="43.9484" lon="2.49233">
        <ele>342</ele>
        <time>2017-06-26T06:38:10Z</time>
      </trkpt>
      <trkpt lat="43.94845" lon="2.49231">
        <ele>343</ele>
        <time>2017-06-26T06:38:13Z</time>
      </trkpt>
      <trkpt lat="43.94849" lon="2.49232">
        <ele>342</ele>
        <time>2017-06-26T06:38:16Z</time>
      </trkpt>
      <trkpt lat="43.94855" lon="2.4923">
        <ele>342</ele>
        <time>2017-06-26T06:38:19Z</time>
      </trkpt>
      <trkpt lat="43.94859" lon="2.49224">
        <ele>342</ele>
        <time>2017-06-26T06:38:22Z</time>
      </trkpt>
      <trkpt lat="43.94863" lon="2.4922">
        <ele>340</ele>
        <time>2017-06-26T06:38:24Z</time>
      </trkpt>
      <trkpt lat="43.94868" lon="2.49216">
        <ele>339</ele>
        <time>2017-06-26T06:38:26Z</time>
      </trkpt>
      <trkpt lat="43.94873" lon="2.49213">
        <ele>338</ele>
        <time>2017-06-26T06:38:28Z</time>
      </trkpt>
      <trkpt lat="43.94877" lon="2.49212">
        <ele>338</ele>
        <time>2017-06-26T06:38:30Z</time>
      </trkpt>
      <trkpt lat="43.94877" lon="2.49219">
        <ele>338</ele>
        <time>2017-06-26T06:38:34Z</time>
      </trkpt>
      <trkpt lat="43.94879" lon="2.49224">
        <ele>339</ele>
        <time>2017-06-26T06:38:38Z</time>
      </trkpt>
      <trkpt lat="43.94881" lon="2.4923">
        <ele>340</ele>
        <time>2017-06-26T06:38:41Z</time>
      </trkpt>
      <trkpt lat="43.94887" lon="2.49236">
        <ele>341</ele>
        <time>2017-06-26T06:38:44Z</time>
      </trkpt>
      <trkpt lat="43.94891" lon="2.49241">
        <ele>342</ele>
        <time>2017-06-26T06:38:46Z</time>
      </trkpt>
      <trkpt lat="43.94894" lon="2.49246">
        <ele>343</ele>
        <time>2017-06-26T06:38:50Z</time>
      </trkpt>
      <trkpt lat="43.94898" lon="2.49251">
        <ele>344</ele>
        <time>2017-06-26T06:38:53Z</time>
      </trkpt>
      <trkpt lat="43.94901" lon="2.49256">
        <ele>344</ele>
        <time>2017-06-26T06:38:55Z</time>
      </trkpt>
      <trkpt lat="43.94905" lon="2.49261">
        <ele>344</ele>
        <time>2017-06-26T06:38:57Z</time>
      </trkpt>
      <trkpt lat="43.94909" lon="2.49267">
        <ele>344</ele>
        <time>2017-06-26T06:38:59Z</time>
      </trkpt>
      <trkpt lat="43.94914" lon="2.4927">
        <ele>345</ele>
        <time>2017-06-26T06:39:03Z</time>
      </trkpt>
      <trkpt lat="43.9492" lon="2.49267">
        <ele>347</ele>
        <time>2017-06-26T06:39:06Z</time>
      </trkpt>
      <trkpt lat="43.94925" lon="2.49267">
        <ele>349</ele>
        <time>2017-06-26T06:39:07Z</time>
      </trkpt>
      <trkpt lat="43.9493" lon="2.49266">
        <ele>351</ele>
        <time>2017-06-26T06:39:09Z</time>
      </trkpt>
      <trkpt lat="43.94935" lon="2.49267">
        <ele>353</ele>
        <time>2017-06-26T06:39:16Z</time>
      </trkpt>
      <trkpt lat="43.9494" lon="2.49268">
        <ele>354</ele>
        <time>2017-06-26T06:39:22Z</time>
      </trkpt>
      <trkpt lat="43.94946" lon="2.49267">
        <ele>355</ele>
        <time>2017-06-26T06:39:26Z</time>
      </trkpt>
      <trkpt lat="43.94952" lon="2.49266">
        <ele>356</ele>
        <time>2017-06-26T06:39:31Z</time>
      </trkpt>
      <trkpt lat="43.94958" lon="2.49265">
        <ele>356</ele>
        <time>2017-06-26T06:39:34Z</time>
      </trkpt>
      <trkpt lat="43.94964" lon="2.49265">
        <ele>357</ele>
        <time>2017-06-26T06:39:37Z</time>
      </trkpt>
      <trkpt lat="43.94969" lon="2.49263">
        <ele>357</ele>
        <time>2017-06-26T06:39:39Z</time>
      </trkpt>
      <trkpt lat="43.94975" lon="2.49263">
        <ele>358</ele>
        <time>2017-06-26T06:39:42Z</time>
      </trkpt>
      <trkpt lat="43.9498" lon="2.49264">
        <ele>359</ele>
        <time>2017-06-26T06:39:44Z</time>
      </trkpt>
      <trkpt lat="43.94988" lon="2.49264">
        <ele>360</ele>
        <time>2017-06-26T06:39:46Z</time>
      </trkpt>
      <trkpt lat="43.94992" lon="2.49265">
        <ele>361</ele>
        <time>2017-06-26T06:39:48Z</time>
      </trkpt>
      <trkpt lat="43.94997" lon="2.49266">
        <ele>361</ele>
        <time>2017-06-26T06:39:50Z</time>
      </trkpt>
      <trkpt lat="43.95003" lon="2.49269">
        <ele>361</ele>
        <time>2017-06-26T06:39:52Z</time>
      </trkpt>
      <trkpt lat="43.95008" lon="2.49271">
        <ele>361</ele>
        <time>2017-06-26T06:39:54Z</time>
      </trkpt>
      <trkpt lat="43.95013" lon="2.49272">
        <ele>360</ele>
        <time>2017-06-26T06:39:57Z</time>
      </trkpt>
      <trkpt lat="43.95018" lon="2.49273">
        <ele>360</ele>
        <time>2017-06-26T06:39:59Z</time>
      </trkpt>
      <trkpt lat="43.95024" lon="2.49272">
        <ele>360</ele>
        <time>2017-06-26T06:40:01Z</time>
      </trkpt>
      <trkpt lat="43.95031" lon="2.49269">
        <ele>360</ele>
        <time>2017-06-26T06:40:03Z</time>
      </trkpt>
      <trkpt lat="43.95038" lon="2.49268">
        <ele>360</ele>
        <time>2017-06-26T06:40:05Z</time>
      </trkpt>
      <trkpt lat="43.95043" lon="2.49267">
        <ele>359</ele>
        <time>2017-06-26T06:40:07Z</time>
      </trkpt>
      <trkpt lat="43.95048" lon="2.49268">
        <ele>359</ele>
        <time>2017-06-26T06:40:09Z</time>
      </trkpt>
      <trkpt lat="43.95054" lon="2.49268">
        <ele>358</ele>
        <time>2017-06-26T06:40:11Z</time>
      </trkpt>
      <trkpt lat="43.95058" lon="2.49267">
        <ele>358</ele>
        <time>2017-06-26T06:40:13Z</time>
      </trkpt>
      <trkpt lat="43.95063" lon="2.49267">
        <ele>358</ele>
        <time>2017-06-26T06:40:15Z</time>
      </trkpt>
      <trkpt lat="43.95069" lon="2.49268">
        <ele>359</ele>
        <time>2017-06-26T06:40:17Z</time>
      </trkpt>
      <trkpt lat="43.95074" lon="2.49268">
        <ele>360</ele>
        <time>2017-06-26T06:40:19Z</time>
      </trkpt>
      <trkpt lat="43.95079" lon="2.49269">
        <ele>360</ele>
        <time>2017-06-26T06:40:21Z</time>
      </trkpt>
      <trkpt lat="43.95085" lon="2.49272">
        <ele>359</ele>
        <time>2017-06-26T06:40:24Z</time>
      </trkpt>
      <trkpt lat="43.95092" lon="2.49274">
        <ele>359</ele>
        <time>2017-06-26T06:40:27Z</time>
      </trkpt>
      <trkpt lat="43.95099" lon="2.49273">
        <ele>359</ele>
        <time>2017-06-26T06:40:30Z</time>
      </trkpt>
      <trkpt lat="43.95104" lon="2.49273">
        <ele>359</ele>
        <time>2017-06-26T06:40:32Z</time>
      </trkpt>
      <trkpt lat="43.9511" lon="2.49274">
        <ele>358</ele>
        <time>2017-06-26T06:40:35Z</time>
      </trkpt>
      <trkpt lat="43.95116" lon="2.49275">
        <ele>358</ele>
        <time>2017-06-26T06:40:38Z</time>
      </trkpt>
      <trkpt lat="43.95123" lon="2.49277">
        <ele>357</ele>
        <time>2017-06-26T06:40:41Z</time>
      </trkpt>
      <trkpt lat="43.95129" lon="2.49279">
        <ele>357</ele>
        <time>2017-06-26T06:40:43Z</time>
      </trkpt>
      <trkpt lat="43.95134" lon="2.49281">
        <ele>358</ele>
        <time>2017-06-26T06:40:45Z</time>
      </trkpt>
      <trkpt lat="43.9514" lon="2.49283">
        <ele>359</ele>
        <time>2017-06-26T06:40:48Z</time>
      </trkpt>
      <trkpt lat="43.95147" lon="2.49283">
        <ele>362</ele>
        <time>2017-06-26T06:40:51Z</time>
      </trkpt>
      <trkpt lat="43.95152" lon="2.49282">
        <ele>364</ele>
        <time>2017-06-26T06:40:53Z</time>
      </trkpt>
      <trkpt lat="43.95157" lon="2.4928">
        <ele>366</ele>
        <time>2017-06-26T06:40:55Z</time>
      </trkpt>
      <trkpt lat="43.95161" lon="2.49279">
        <ele>367</ele>
        <time>2017-06-26T06:40:57Z</time>
      </trkpt>
      <trkpt lat="43.95166" lon="2.4928">
        <ele>368</ele>
        <time>2017-06-26T06:40:59Z</time>
      </trkpt>
      <trkpt lat="43.95172" lon="2.49285">
        <ele>369</ele>
        <time>2017-06-26T06:41:01Z</time>
      </trkpt>
      <trkpt lat="43.95175" lon="2.49291">
        <ele>369</ele>
        <time>2017-06-26T06:41:04Z</time>
      </trkpt>
      <trkpt lat="43.95179" lon="2.4929">
        <ele>370</ele>
        <time>2017-06-26T06:41:07Z</time>
      </trkpt>
      <trkpt lat="43.95186" lon="2.49288">
        <ele>370</ele>
        <time>2017-06-26T06:41:10Z</time>
      </trkpt>
      <trkpt lat="43.95193" lon="2.49289">
        <ele>370</ele>
        <time>2017-06-26T06:41:13Z</time>
      </trkpt>
      <trkpt lat="43.95198" lon="2.49289">
        <ele>368</ele>
        <time>2017-06-26T06:41:15Z</time>
      </trkpt>
      <trkpt lat="43.95205" lon="2.49291">
        <ele>368</ele>
        <time>2017-06-26T06:41:18Z</time>
      </trkpt>
      <trkpt lat="43.9521" lon="2.49292">
        <ele>368</ele>
        <time>2017-06-26T06:41:20Z</time>
      </trkpt>
      <trkpt lat="43.95216" lon="2.49293">
        <ele>367</ele>
        <time>2017-06-26T06:41:22Z</time>
      </trkpt>
      <trkpt lat="43.95221" lon="2.49292">
        <ele>367</ele>
        <time>2017-06-26T06:41:24Z</time>
      </trkpt>
      <trkpt lat="43.95226" lon="2.49291">
        <ele>367</ele>
        <time>2017-06-26T06:41:26Z</time>
      </trkpt>
      <trkpt lat="43.95231" lon="2.49294">
        <ele>366</ele>
        <time>2017-06-26T06:41:28Z</time>
      </trkpt>
      <trkpt lat="43.95236" lon="2.49296">
        <ele>366</ele>
        <time>2017-06-26T06:41:30Z</time>
      </trkpt>
      <trkpt lat="43.95242" lon="2.49296">
        <ele>368</ele>
        <time>2017-06-26T06:41:32Z</time>
      </trkpt>
      <trkpt lat="43.95247" lon="2.49295">
        <ele>371</ele>
        <time>2017-06-26T06:41:34Z</time>
      </trkpt>
      <trkpt lat="43.95253" lon="2.49296">
        <ele>373</ele>
        <time>2017-06-26T06:41:36Z</time>
      </trkpt>
      <trkpt lat="43.95258" lon="2.49298">
        <ele>375</ele>
        <time>2017-06-26T06:41:38Z</time>
      </trkpt>
      <trkpt lat="43.95263" lon="2.49301">
        <ele>376</ele>
        <time>2017-06-26T06:41:40Z</time>
      </trkpt>
      <trkpt lat="43.95268" lon="2.49303">
        <ele>377</ele>
        <time>2017-06-26T06:41:42Z</time>
      </trkpt>
      <trkpt lat="43.95275" lon="2.49306">
        <ele>372</ele>
        <time>2017-06-26T06:41:44Z</time>
      </trkpt>
      <trkpt lat="43.95281" lon="2.49308">
        <ele>370</ele>
        <time>2017-06-26T06:41:46Z</time>
      </trkpt>
      <trkpt lat="43.95285" lon="2.49311">
        <ele>367</ele>
        <time>2017-06-26T06:41:48Z</time>
      </trkpt>
      <trkpt lat="43.9529" lon="2.49314">
        <ele>365</ele>
        <time>2017-06-26T06:41:50Z</time>
      </trkpt>
      <trkpt lat="43.95294" lon="2.49316">
        <ele>363</ele>
        <time>2017-06-26T06:41:52Z</time>
      </trkpt>
      <trkpt lat="43.95296" lon="2.49322">
        <ele>366</ele>
        <time>2017-06-26T06:41:57Z</time>
      </trkpt>
      <trkpt lat="43.95294" lon="2.49329">
        <ele>367</ele>
        <time>2017-06-26T06:42:01Z</time>
      </trkpt>
      <trkpt lat="43.95297" lon="2.49337">
        <ele>369</ele>
        <time>2017-06-26T06:42:04Z</time>
      </trkpt>
      <trkpt lat="43.95297" lon="2.49346">
        <ele>371</ele>
        <time>2017-06-26T06:42:07Z</time>
      </trkpt>
      <trkpt lat="43.95298" lon="2.49355">
        <ele>373</ele>
        <time>2017-06-26T06:42:10Z</time>
      </trkpt>
      <trkpt lat="43.95299" lon="2.49361">
        <ele>374</ele>
        <time>2017-06-26T06:42:12Z</time>
      </trkpt>
      <trkpt lat="43.95299" lon="2.49367">
        <ele>375</ele>
        <time>2017-06-26T06:42:15Z</time>
      </trkpt>
      <trkpt lat="43.95295" lon="2.49363">
        <ele>375</ele>
        <time>2017-06-26T06:42:25Z</time>
      </trkpt>
      <trkpt lat="43.95292" lon="2.49355">
        <ele>374</ele>
        <time>2017-06-26T06:42:27Z</time>
      </trkpt>
      <trkpt lat="43.9529" lon="2.49347">
        <ele>374</ele>
        <time>2017-06-26T06:42:29Z</time>
      </trkpt>
      <trkpt lat="43.9529" lon="2.49339">
        <ele>373</ele>
        <time>2017-06-26T06:42:31Z</time>
      </trkpt>
      <trkpt lat="43.95291" lon="2.49332">
        <ele>373</ele>
        <time>2017-06-26T06:42:33Z</time>
      </trkpt>
      <trkpt lat="43.95295" lon="2.49327">
        <ele>373</ele>
        <time>2017-06-26T06:42:35Z</time>
      </trkpt>
      <trkpt lat="43.953" lon="2.49325">
        <ele>373</ele>
        <time>2017-06-26T06:42:37Z</time>
      </trkpt>
      <trkpt lat="43.95306" lon="2.49327">
        <ele>374</ele>
        <time>2017-06-26T06:42:40Z</time>
      </trkpt>
      <trkpt lat="43.95311" lon="2.49331">
        <ele>376</ele>
        <time>2017-06-26T06:42:42Z</time>
      </trkpt>
      <trkpt lat="43.95315" lon="2.49336">
        <ele>376</ele>
        <time>2017-06-26T06:42:44Z</time>
      </trkpt>
      <trkpt lat="43.95319" lon="2.4934">
        <ele>377</ele>
        <time>2017-06-26T06:42:46Z</time>
      </trkpt>
      <trkpt lat="43.95324" lon="2.49344">
        <ele>377</ele>
        <time>2017-06-26T06:42:49Z</time>
      </trkpt>
      <trkpt lat="43.95329" lon="2.49348">
        <ele>378</ele>
        <time>2017-06-26T06:42:51Z</time>
      </trkpt>
      <trkpt lat="43.95334" lon="2.49352">
        <ele>378</ele>
        <time>2017-06-26T06:42:53Z</time>
      </trkpt>
      <trkpt lat="43.95338" lon="2.49357">
        <ele>377</ele>
        <time>2017-06-26T06:42:55Z</time>
      </trkpt>
      <trkpt lat="43.95342" lon="2.49362">
        <ele>377</ele>
        <time>2017-06-26T06:42:57Z</time>
      </trkpt>
      <trkpt lat="43.95345" lon="2.49366">
        <ele>377</ele>
        <time>2017-06-26T06:42:59Z</time>
      </trkpt>
      <trkpt lat="43.9535" lon="2.49372">
        <ele>377</ele>
        <time>2017-06-26T06:43:02Z</time>
      </trkpt>
      <trkpt lat="43.95354" lon="2.49377">
        <ele>377</ele>
        <time>2017-06-26T06:43:05Z</time>
      </trkpt>
      <trkpt lat="43.95358" lon="2.49381">
        <ele>377</ele>
        <time>2017-06-26T06:43:07Z</time>
      </trkpt>
      <trkpt lat="43.95362" lon="2.49385">
        <ele>377</ele>
        <time>2017-06-26T06:43:09Z</time>
      </trkpt>
      <trkpt lat="43.95366" lon="2.4939">
        <ele>378</ele>
        <time>2017-06-26T06:43:12Z</time>
      </trkpt>
      <trkpt lat="43.95371" lon="2.49397">
        <ele>379</ele>
        <time>2017-06-26T06:43:15Z</time>
      </trkpt>
      <trkpt lat="43.95375" lon="2.49403">
        <ele>379</ele>
        <time>2017-06-26T06:43:18Z</time>
      </trkpt>
      <trkpt lat="43.95379" lon="2.4941">
        <ele>380</ele>
        <time>2017-06-26T06:43:21Z</time>
      </trkpt>
      <trkpt lat="43.95382" lon="2.49417">
        <ele>380</ele>
        <time>2017-06-26T06:43:24Z</time>
      </trkpt>
      <trkpt lat="43.95387" lon="2.49423">
        <ele>381</ele>
        <time>2017-06-26T06:43:27Z</time>
      </trkpt>
      <trkpt lat="43.9539" lon="2.4943">
        <ele>381</ele>
        <time>2017-06-26T06:43:30Z</time>
      </trkpt>
      <trkpt lat="43.95395" lon="2.49437">
        <ele>382</ele>
        <time>2017-06-26T06:43:33Z</time>
      </trkpt>
      <trkpt lat="43.95398" lon="2.49441">
        <ele>383</ele>
        <time>2017-06-26T06:43:35Z</time>
      </trkpt>
      <trkpt lat="43.95401" lon="2.49448">
        <ele>384</ele>
        <time>2017-06-26T06:43:38Z</time>
      </trkpt>
      <trkpt lat="43.95406" lon="2.49454">
        <ele>382</ele>
        <time>2017-06-26T06:43:41Z</time>
      </trkpt>
      <trkpt lat="43.95411" lon="2.49458">
        <ele>381</ele>
        <time>2017-06-26T06:43:44Z</time>
      </trkpt>
      <trkpt lat="43.95416" lon="2.49464">
        <ele>381</ele>
        <time>2017-06-26T06:43:47Z</time>
      </trkpt>
      <trkpt lat="43.95418" lon="2.49471">
        <ele>381</ele>
        <time>2017-06-26T06:43:50Z</time>
      </trkpt>
      <trkpt lat="43.95423" lon="2.49477">
        <ele>382</ele>
        <time>2017-06-26T06:43:53Z</time>
      </trkpt>
      <trkpt lat="43.95427" lon="2.49483">
        <ele>386</ele>
        <time>2017-06-26T06:43:56Z</time>
      </trkpt>
      <trkpt lat="43.95431" lon="2.49488">
        <ele>388</ele>
        <time>2017-06-26T06:43:58Z</time>
      </trkpt>
      <trkpt lat="43.95435" lon="2.49494">
        <ele>389</ele>
        <time>2017-06-26T06:44:01Z</time>
      </trkpt>
      <trkpt lat="43.9544" lon="2.495">
        <ele>391</ele>
        <time>2017-06-26T06:44:04Z</time>
      </trkpt>
      <trkpt lat="43.95445" lon="2.49506">
        <ele>392</ele>
        <time>2017-06-26T06:44:07Z</time>
      </trkpt>
      <trkpt lat="43.95449" lon="2.4951">
        <ele>394</ele>
        <time>2017-06-26T06:44:09Z</time>
      </trkpt>
      <trkpt lat="43.95452" lon="2.49515">
        <ele>395</ele>
        <time>2017-06-26T06:44:11Z</time>
      </trkpt>
      <trkpt lat="43.95454" lon="2.4952">
        <ele>396</ele>
        <time>2017-06-26T06:44:13Z</time>
      </trkpt>
      <trkpt lat="43.95457" lon="2.49525">
        <ele>397</ele>
        <time>2017-06-26T06:44:15Z</time>
      </trkpt>
      <trkpt lat="43.9546" lon="2.49531">
        <ele>397</ele>
        <time>2017-06-26T06:44:17Z</time>
      </trkpt>
      <trkpt lat="43.95462" lon="2.49539">
        <ele>397</ele>
        <time>2017-06-26T06:44:19Z</time>
      </trkpt>
      <trkpt lat="43.95467" lon="2.49544">
        <ele>397</ele>
        <time>2017-06-26T06:44:21Z</time>
      </trkpt>
      <trkpt lat="43.95472" lon="2.49548">
        <ele>397</ele>
        <time>2017-06-26T06:44:23Z</time>
      </trkpt>
      <trkpt lat="43.95476" lon="2.49551">
        <ele>397</ele>
        <time>2017-06-26T06:44:25Z</time>
      </trkpt>
      <trkpt lat="43.9548" lon="2.49555">
        <ele>396</ele>
        <time>2017-06-26T06:44:27Z</time>
      </trkpt>
      <trkpt lat="43.95484" lon="2.49559">
        <ele>396</ele>
        <time>2017-06-26T06:44:29Z</time>
      </trkpt>
      <trkpt lat="43.95489" lon="2.49564">
        <ele>395</ele>
        <time>2017-06-26T06:44:32Z</time>
      </trkpt>
      <trkpt lat="43.95492" lon="2.49569">
        <ele>394</ele>
        <time>2017-06-26T06:44:34Z</time>
      </trkpt>
      <trkpt lat="43.95496" lon="2.49573">
        <ele>393</ele>
        <time>2017-06-26T06:44:36Z</time>
      </trkpt>
      <trkpt lat="43.95499" lon="2.49578">
        <ele>391</ele>
        <time>2017-06-26T06:44:38Z</time>
      </trkpt>
      <trkpt lat="43.95502" lon="2.49583">
        <ele>390</ele>
        <time>2017-06-26T06:44:40Z</time>
      </trkpt>
      <trkpt lat="43.95507" lon="2.4959">
        <ele>391</ele>
        <time>2017-06-26T06:44:43Z</time>
      </trkpt>
      <trkpt lat="43.95511" lon="2.49594">
        <ele>391</ele>
        <time>2017-06-26T06:44:46Z</time>
      </trkpt>
      <trkpt lat="43.95515" lon="2.496">
        <ele>392</ele>
        <time>2017-06-26T06:44:49Z</time>
      </trkpt>
      <trkpt lat="43.9552" lon="2.49607">
        <ele>393</ele>
        <time>2017-06-26T06:44:52Z</time>
      </trkpt>
      <trkpt lat="43.95524" lon="2.49613">
        <ele>391</ele>
        <time>2017-06-26T06:44:55Z</time>
      </trkpt>
      <trkpt lat="43.95527" lon="2.49618">
        <ele>389</ele>
        <time>2017-06-26T06:44:57Z</time>
      </trkpt>
      <trkpt lat="43.9553" lon="2.49623">
        <ele>389</ele>
        <time>2017-06-26T06:45:00Z</time>
      </trkpt>
      <trkpt lat="43.95533" lon="2.4963">
        <ele>389</ele>
        <time>2017-06-26T06:45:03Z</time>
      </trkpt>
      <trkpt lat="43.95536" lon="2.49635">
        <ele>389</ele>
        <time>2017-06-26T06:45:06Z</time>
      </trkpt>
      <trkpt lat="43.95537" lon="2.49642">
        <ele>392</ele>
        <time>2017-06-26T06:45:08Z</time>
      </trkpt>
      <trkpt lat="43.9554" lon="2.49648">
        <ele>394</ele>
        <time>2017-06-26T06:45:11Z</time>
      </trkpt>
      <trkpt lat="43.95544" lon="2.49652">
        <ele>395</ele>
        <time>2017-06-26T06:45:14Z</time>
      </trkpt>
      <trkpt lat="43.95549" lon="2.49658">
        <ele>397</ele>
        <time>2017-06-26T06:45:18Z</time>
      </trkpt>
      <trkpt lat="43.95553" lon="2.49664">
        <ele>399</ele>
        <time>2017-06-26T06:45:21Z</time>
      </trkpt>
      <trkpt lat="43.95557" lon="2.49667">
        <ele>401</ele>
        <time>2017-06-26T06:45:24Z</time>
      </trkpt>
      <trkpt lat="43.95561" lon="2.49671">
        <ele>402</ele>
        <time>2017-06-26T06:45:26Z</time>
      </trkpt>
      <trkpt lat="43.95564" lon="2.49677">
        <ele>404</ele>
        <time>2017-06-26T06:45:29Z</time>
      </trkpt>
      <trkpt lat="43.95567" lon="2.49683">
        <ele>405</ele>
        <time>2017-06-26T06:45:32Z</time>
      </trkpt>
      <trkpt lat="43.9557" lon="2.49689">
        <ele>405</ele>
        <time>2017-06-26T06:45:35Z</time>
      </trkpt>
      <trkpt lat="43.95574" lon="2.49694">
        <ele>405</ele>
        <time>2017-06-26T06:45:38Z</time>
      </trkpt>
      <trkpt lat="43.95577" lon="2.49692">
        <ele>407</ele>
        <time>2017-06-26T06:45:57Z</time>
      </trkpt>
      <trkpt lat="43.95577" lon="2.49692">
        <ele>408</ele>
        <time>2017-06-26T06:45:59Z</time>
      </trkpt>
      <trkpt lat="43.95583" lon="2.49695">
        <ele>409</ele>
        <time>2017-06-26T06:46:19Z</time>
      </trkpt>
      <trkpt lat="43.95586" lon="2.497">
        <ele>411</ele>
        <time>2017-06-26T06:46:21Z</time>
      </trkpt>
      <trkpt lat="43.95589" lon="2.49704">
        <ele>413</ele>
        <time>2017-06-26T06:46:23Z</time>
      </trkpt>
      <trkpt lat="43.95592" lon="2.49712">
        <ele>413</ele>
        <time>2017-06-26T06:46:26Z</time>
      </trkpt>
      <trkpt lat="43.95595" lon="2.49717">
        <ele>414</ele>
        <time>2017-06-26T06:46:28Z</time>
      </trkpt>
      <trkpt lat="43.95599" lon="2.49722">
        <ele>414</ele>
        <time>2017-06-26T06:46:30Z</time>
      </trkpt>
      <trkpt lat="43.95603" lon="2.49729">
        <ele>413</ele>
        <time>2017-06-26T06:46:33Z</time>
      </trkpt>
      <trkpt lat="43.95606" lon="2.49736">
        <ele>412</ele>
        <time>2017-06-26T06:46:36Z</time>
      </trkpt>
      <trkpt lat="43.95609" lon="2.49742">
        <ele>412</ele>
        <time>2017-06-26T06:46:39Z</time>
      </trkpt>
      <trkpt lat="43.95613" lon="2.49746">
        <ele>412</ele>
        <time>2017-06-26T06:46:41Z</time>
      </trkpt>
      <trkpt lat="43.95618" lon="2.4975">
        <ele>409</ele>
        <time>2017-06-26T06:46:43Z</time>
      </trkpt>
      <trkpt lat="43.9563" lon="2.49767">
        <ele>408</ele>
        <time>2017-06-26T06:46:55Z</time>
      </trkpt>
      <trkpt lat="43.95633" lon="2.49771">
        <ele>408</ele>
        <time>2017-06-26T06:46:57Z</time>
      </trkpt>
      <trkpt lat="43.95637" lon="2.49776">
        <ele>408</ele>
        <time>2017-06-26T06:46:59Z</time>
      </trkpt>
      <trkpt lat="43.95644" lon="2.49784">
        <ele>408</ele>
        <time>2017-06-26T06:47:03Z</time>
      </trkpt>
      <trkpt lat="43.95647" lon="2.49789">
        <ele>413</ele>
        <time>2017-06-26T06:47:05Z</time>
      </trkpt>
      <trkpt lat="43.95651" lon="2.49794">
        <ele>415</ele>
        <time>2017-06-26T06:47:07Z</time>
      </trkpt>
      <trkpt lat="43.95655" lon="2.498">
        <ele>417</ele>
        <time>2017-06-26T06:47:10Z</time>
      </trkpt>
      <trkpt lat="43.9566" lon="2.49806">
        <ele>417</ele>
        <time>2017-06-26T06:47:13Z</time>
      </trkpt>
      <trkpt lat="43.95665" lon="2.49811">
        <ele>416</ele>
        <time>2017-06-26T06:47:16Z</time>
      </trkpt>
      <trkpt lat="43.95668" lon="2.49815">
        <ele>416</ele>
        <time>2017-06-26T06:47:20Z</time>
      </trkpt>
      <trkpt lat="43.95671" lon="2.49822">
        <ele>411</ele>
        <time>2017-06-26T06:47:25Z</time>
      </trkpt>
      <trkpt lat="43.95676" lon="2.49824">
        <ele>409</ele>
        <time>2017-06-26T06:47:28Z</time>
      </trkpt>
      <trkpt lat="43.95681" lon="2.49828">
        <ele>409</ele>
        <time>2017-06-26T06:47:32Z</time>
      </trkpt>
      <trkpt lat="43.95686" lon="2.49829">
        <ele>409</ele>
        <time>2017-06-26T06:47:34Z</time>
      </trkpt>
      <trkpt lat="43.9569" lon="2.49829">
        <ele>410</ele>
        <time>2017-06-26T06:47:36Z</time>
      </trkpt>
      <trkpt lat="43.95697" lon="2.49829">
        <ele>413</ele>
        <time>2017-06-26T06:47:40Z</time>
      </trkpt>
      <trkpt lat="43.95702" lon="2.49829">
        <ele>415</ele>
        <time>2017-06-26T06:47:42Z</time>
      </trkpt>
      <trkpt lat="43.95709" lon="2.49827">
        <ele>416</ele>
        <time>2017-06-26T06:47:45Z</time>
      </trkpt>
      <trkpt lat="43.95713" lon="2.49824">
        <ele>417</ele>
        <time>2017-06-26T06:47:47Z</time>
      </trkpt>
      <trkpt lat="43.95718" lon="2.49821">
        <ele>418</ele>
        <time>2017-06-26T06:47:49Z</time>
      </trkpt>
      <trkpt lat="43.95723" lon="2.49819">
        <ele>419</ele>
        <time>2017-06-26T06:47:51Z</time>
      </trkpt>
      <trkpt lat="43.95727" lon="2.49816">
        <ele>420</ele>
        <time>2017-06-26T06:47:53Z</time>
      </trkpt>
      <trkpt lat="43.95731" lon="2.49814">
        <ele>420</ele>
        <time>2017-06-26T06:47:55Z</time>
      </trkpt>
      <trkpt lat="43.95738" lon="2.49809">
        <ele>421</ele>
        <time>2017-06-26T06:47:58Z</time>
      </trkpt>
      <trkpt lat="43.95742" lon="2.49807">
        <ele>421</ele>
        <time>2017-06-26T06:48:02Z</time>
      </trkpt>
      <trkpt lat="43.95747" lon="2.49806">
        <ele>422</ele>
        <time>2017-06-26T06:48:06Z</time>
      </trkpt>
      <trkpt lat="43.95753" lon="2.49803">
        <ele>423</ele>
        <time>2017-06-26T06:48:09Z</time>
      </trkpt>
      <trkpt lat="43.95758" lon="2.49801">
        <ele>424</ele>
        <time>2017-06-26T06:48:11Z</time>
      </trkpt>
      <trkpt lat="43.95762" lon="2.49798">
        <ele>426</ele>
        <time>2017-06-26T06:48:14Z</time>
      </trkpt>
      <trkpt lat="43.95765" lon="2.49791">
        <ele>427</ele>
        <time>2017-06-26T06:48:17Z</time>
      </trkpt>
      <trkpt lat="43.95768" lon="2.49784">
        <ele>428</ele>
        <time>2017-06-26T06:48:19Z</time>
      </trkpt>
      <trkpt lat="43.95771" lon="2.49777">
        <ele>429</ele>
        <time>2017-06-26T06:48:22Z</time>
      </trkpt>
      <trkpt lat="43.95776" lon="2.49771">
        <ele>430</ele>
        <time>2017-06-26T06:48:25Z</time>
      </trkpt>
      <trkpt lat="43.95781" lon="2.49767">
        <ele>430</ele>
        <time>2017-06-26T06:48:27Z</time>
      </trkpt>
      <trkpt lat="43.95785" lon="2.49763">
        <ele>431</ele>
        <time>2017-06-26T06:48:29Z</time>
      </trkpt>
      <trkpt lat="43.95789" lon="2.49759">
        <ele>432</ele>
        <time>2017-06-26T06:48:31Z</time>
      </trkpt>
      <trkpt lat="43.95793" lon="2.49755">
        <ele>433</ele>
        <time>2017-06-26T06:48:33Z</time>
      </trkpt>
      <trkpt lat="43.95798" lon="2.49753">
        <ele>434</ele>
        <time>2017-06-26T06:48:35Z</time>
      </trkpt>
      <trkpt lat="43.95802" lon="2.49752">
        <ele>436</ele>
        <time>2017-06-26T06:48:37Z</time>
      </trkpt>
      <trkpt lat="43.95807" lon="2.49751">
        <ele>438</ele>
        <time>2017-06-26T06:48:39Z</time>
      </trkpt>
      <trkpt lat="43.95812" lon="2.49751">
        <ele>440</ele>
        <time>2017-06-26T06:48:41Z</time>
      </trkpt>
      <trkpt lat="43.95816" lon="2.49752">
        <ele>441</ele>
        <time>2017-06-26T06:48:44Z</time>
      </trkpt>
      <trkpt lat="43.95823" lon="2.49752">
        <ele>442</ele>
        <time>2017-06-26T06:48:46Z</time>
      </trkpt>
      <trkpt lat="43.9583" lon="2.49753">
        <ele>442</ele>
        <time>2017-06-26T06:48:48Z</time>
      </trkpt>
      <trkpt lat="43.95835" lon="2.49753">
        <ele>442</ele>
        <time>2017-06-26T06:48:50Z</time>
      </trkpt>
      <trkpt lat="43.9584" lon="2.49755">
        <ele>441</ele>
        <time>2017-06-26T06:48:52Z</time>
      </trkpt>
      <trkpt lat="43.95844" lon="2.49756">
        <ele>440</ele>
        <time>2017-06-26T06:48:54Z</time>
      </trkpt>
      <trkpt lat="43.95849" lon="2.49761">
        <ele>440</ele>
        <time>2017-06-26T06:48:57Z</time>
      </trkpt>
      <trkpt lat="43.95848" lon="2.49767">
        <ele>439</ele>
        <time>2017-06-26T06:49:01Z</time>
      </trkpt>
      <trkpt lat="43.95847" lon="2.49774">
        <ele>438</ele>
        <time>2017-06-26T06:49:03Z</time>
      </trkpt>
      <trkpt lat="43.95849" lon="2.49782">
        <ele>438</ele>
        <time>2017-06-26T06:49:07Z</time>
      </trkpt>
      <trkpt lat="43.95855" lon="2.49787">
        <ele>437</ele>
        <time>2017-06-26T06:49:09Z</time>
      </trkpt>
      <trkpt lat="43.95861" lon="2.49791">
        <ele>436</ele>
        <time>2017-06-26T06:49:11Z</time>
      </trkpt>
      <trkpt lat="43.95866" lon="2.49796">
        <ele>436</ele>
        <time>2017-06-26T06:49:13Z</time>
      </trkpt>
      <trkpt lat="43.9587" lon="2.49801">
        <ele>436</ele>
        <time>2017-06-26T06:49:15Z</time>
      </trkpt>
      <trkpt lat="43.95874" lon="2.49806">
        <ele>436</ele>
        <time>2017-06-26T06:49:18Z</time>
      </trkpt>
      <trkpt lat="43.95879" lon="2.49811">
        <ele>436</ele>
        <time>2017-06-26T06:49:20Z</time>
      </trkpt>
      <trkpt lat="43.95885" lon="2.49814">
        <ele>437</ele>
        <time>2017-06-26T06:49:22Z</time>
      </trkpt>
      <trkpt lat="43.9589" lon="2.49817">
        <ele>438</ele>
        <time>2017-06-26T06:49:24Z</time>
      </trkpt>
      <trkpt lat="43.95895" lon="2.49819">
        <ele>438</ele>
        <time>2017-06-26T06:49:26Z</time>
      </trkpt>
      <trkpt lat="43.959" lon="2.49821">
        <ele>437</ele>
        <time>2017-06-26T06:49:28Z</time>
      </trkpt>
      <trkpt lat="43.95904" lon="2.49822">
        <ele>436</ele>
        <time>2017-06-26T06:49:30Z</time>
      </trkpt>
      <trkpt lat="43.95909" lon="2.49825">
        <ele>435</ele>
        <time>2017-06-26T06:49:32Z</time>
      </trkpt>
      <trkpt lat="43.95913" lon="2.49827">
        <ele>433</ele>
        <time>2017-06-26T06:49:34Z</time>
      </trkpt>
      <trkpt lat="43.95919" lon="2.49829">
        <ele>432</ele>
        <time>2017-06-26T06:49:36Z</time>
      </trkpt>
      <trkpt lat="43.95923" lon="2.49831">
        <ele>431</ele>
        <time>2017-06-26T06:49:38Z</time>
      </trkpt>
      <trkpt lat="43.95929" lon="2.49832">
        <ele>430</ele>
        <time>2017-06-26T06:49:41Z</time>
      </trkpt>
      <trkpt lat="43.95934" lon="2.49832">
        <ele>430</ele>
        <time>2017-06-26T06:49:43Z</time>
      </trkpt>
      <trkpt lat="43.95941" lon="2.4983">
        <ele>429</ele>
        <time>2017-06-26T06:49:46Z</time>
      </trkpt>
      <trkpt lat="43.95948" lon="2.49832">
        <ele>430</ele>
        <time>2017-06-26T06:49:49Z</time>
      </trkpt>
      <trkpt lat="43.95952" lon="2.49836">
        <ele>430</ele>
        <time>2017-06-26T06:49:52Z</time>
      </trkpt>
      <trkpt lat="43.95956" lon="2.49841">
        <ele>430</ele>
        <time>2017-06-26T06:49:54Z</time>
      </trkpt>
      <trkpt lat="43.9596" lon="2.49846">
        <ele>430</ele>
        <time>2017-06-26T06:49:56Z</time>
      </trkpt>
      <trkpt lat="43.95966" lon="2.49851">
        <ele>431</ele>
        <time>2017-06-26T06:49:58Z</time>
      </trkpt>
      <trkpt lat="43.95971" lon="2.49857">
        <ele>431</ele>
        <time>2017-06-26T06:50:00Z</time>
      </trkpt>
      <trkpt lat="43.95976" lon="2.49864">
        <ele>432</ele>
        <time>2017-06-26T06:50:02Z</time>
      </trkpt>
      <trkpt lat="43.95981" lon="2.49869">
        <ele>432</ele>
        <time>2017-06-26T06:50:04Z</time>
      </trkpt>
      <trkpt lat="43.95984" lon="2.49874">
        <ele>431</ele>
        <time>2017-06-26T06:50:06Z</time>
      </trkpt>
      <trkpt lat="43.95984" lon="2.49883">
        <ele>429</ele>
        <time>2017-06-26T06:50:09Z</time>
      </trkpt>
      <trkpt lat="43.95985" lon="2.4989">
        <ele>428</ele>
        <time>2017-06-26T06:50:11Z</time>
      </trkpt>
      <trkpt lat="43.95987" lon="2.49896">
        <ele>426</ele>
        <time>2017-06-26T06:50:13Z</time>
      </trkpt>
      <trkpt lat="43.95988" lon="2.49903">
        <ele>425</ele>
        <time>2017-06-26T06:50:15Z</time>
      </trkpt>
      <trkpt lat="43.95989" lon="2.49912">
        <ele>424</ele>
        <time>2017-06-26T06:50:17Z</time>
      </trkpt>
      <trkpt lat="43.9599" lon="2.49919">
        <ele>425</ele>
        <time>2017-06-26T06:50:19Z</time>
      </trkpt>
      <trkpt lat="43.95992" lon="2.49926">
        <ele>425</ele>
        <time>2017-06-26T06:50:21Z</time>
      </trkpt>
      <trkpt lat="43.95993" lon="2.49934">
        <ele>426</ele>
        <time>2017-06-26T06:50:23Z</time>
      </trkpt>
      <trkpt lat="43.95994" lon="2.4994">
        <ele>427</ele>
        <time>2017-06-26T06:50:25Z</time>
      </trkpt>
      <trkpt lat="43.95994" lon="2.49947">
        <ele>428</ele>
        <time>2017-06-26T06:50:27Z</time>
      </trkpt>
      <trkpt lat="43.95995" lon="2.49954">
        <ele>428</ele>
        <time>2017-06-26T06:50:29Z</time>
      </trkpt>
      <trkpt lat="43.95997" lon="2.49961">
        <ele>429</ele>
        <time>2017-06-26T06:50:32Z</time>
      </trkpt>
      <trkpt lat="43.95998" lon="2.49968">
        <ele>429</ele>
        <time>2017-06-26T06:50:34Z</time>
      </trkpt>
      <trkpt lat="43.96" lon="2.49976">
        <ele>429</ele>
        <time>2017-06-26T06:50:37Z</time>
      </trkpt>
      <trkpt lat="43.96" lon="2.49983">
        <ele>428</ele>
        <time>2017-06-26T06:50:40Z</time>
      </trkpt>
      <trkpt lat="43.95997" lon="2.49991">
        <ele>419</ele>
        <time>2017-06-26T06:50:42Z</time>
      </trkpt>
      <trkpt lat="43.95994" lon="2.49997">
        <ele>414</ele>
        <time>2017-06-26T06:50:44Z</time>
      </trkpt>
      <trkpt lat="43.95992" lon="2.50005">
        <ele>411</ele>
        <time>2017-06-26T06:50:47Z</time>
      </trkpt>
      <trkpt lat="43.9599" lon="2.50014">
        <ele>410</ele>
        <time>2017-06-26T06:50:50Z</time>
      </trkpt>
      <trkpt lat="43.95989" lon="2.5002">
        <ele>402</ele>
        <time>2017-06-26T06:50:52Z</time>
      </trkpt>
      <trkpt lat="43.95988" lon="2.50028">
        <ele>406</ele>
        <time>2017-06-26T06:50:54Z</time>
      </trkpt>
      <trkpt lat="43.95986" lon="2.50034">
        <ele>408</ele>
        <time>2017-06-26T06:50:56Z</time>
      </trkpt>
      <trkpt lat="43.95984" lon="2.50041">
        <ele>410</ele>
        <time>2017-06-26T06:50:59Z</time>
      </trkpt>
      <trkpt lat="43.95983" lon="2.50049">
        <ele>410</ele>
        <time>2017-06-26T06:51:02Z</time>
      </trkpt>
      <trkpt lat="43.95982" lon="2.50055">
        <ele>418</ele>
        <time>2017-06-26T06:51:04Z</time>
      </trkpt>
      <trkpt lat="43.95982" lon="2.50063">
        <ele>422</ele>
        <time>2017-06-26T06:51:07Z</time>
      </trkpt>
      <trkpt lat="43.95981" lon="2.50071">
        <ele>425</ele>
        <time>2017-06-26T06:51:10Z</time>
      </trkpt>
      <trkpt lat="43.95977" lon="2.5008">
        <ele>427</ele>
        <time>2017-06-26T06:51:13Z</time>
      </trkpt>
      <trkpt lat="43.95974" lon="2.50088">
        <ele>428</ele>
        <time>2017-06-26T06:51:15Z</time>
      </trkpt>
      <trkpt lat="43.95971" lon="2.50095">
        <ele>430</ele>
        <time>2017-06-26T06:51:18Z</time>
      </trkpt>
      <trkpt lat="43.95968" lon="2.50103">
        <ele>431</ele>
        <time>2017-06-26T06:51:21Z</time>
      </trkpt>
      <trkpt lat="43.95964" lon="2.5011">
        <ele>428</ele>
        <time>2017-06-26T06:51:24Z</time>
      </trkpt>
      <trkpt lat="43.9596" lon="2.50117">
        <ele>426</ele>
        <time>2017-06-26T06:51:27Z</time>
      </trkpt>
      <trkpt lat="43.95958" lon="2.50124">
        <ele>425</ele>
        <time>2017-06-26T06:51:29Z</time>
      </trkpt>
      <trkpt lat="43.95953" lon="2.50133">
        <ele>424</ele>
        <time>2017-06-26T06:51:32Z</time>
      </trkpt>
      <trkpt lat="43.9595" lon="2.50139">
        <ele>423</ele>
        <time>2017-06-26T06:51:34Z</time>
      </trkpt>
      <trkpt lat="43.95948" lon="2.50145">
        <ele>426</ele>
        <time>2017-06-26T06:51:37Z</time>
      </trkpt>
      <trkpt lat="43.95944" lon="2.50154">
        <ele>428</ele>
        <time>2017-06-26T06:51:40Z</time>
      </trkpt>
      <trkpt lat="43.9594" lon="2.50162">
        <ele>428</ele>
        <time>2017-06-26T06:51:42Z</time>
      </trkpt>
      <trkpt lat="43.95935" lon="2.50169">
        <ele>428</ele>
        <time>2017-06-26T06:51:45Z</time>
      </trkpt>
      <trkpt lat="43.95932" lon="2.50175">
        <ele>428</ele>
        <time>2017-06-26T06:51:48Z</time>
      </trkpt>
      <trkpt lat="43.9593" lon="2.50181">
        <ele>428</ele>
        <time>2017-06-26T06:51:51Z</time>
      </trkpt>
      <trkpt lat="43.95928" lon="2.50187">
        <ele>427</ele>
        <time>2017-06-26T06:51:55Z</time>
      </trkpt>
      <trkpt lat="43.95928" lon="2.50194">
        <ele>426</ele>
        <time>2017-06-26T06:51:58Z</time>
      </trkpt>
      <trkpt lat="43.95926" lon="2.50201">
        <ele>426</ele>
        <time>2017-06-26T06:52:00Z</time>
      </trkpt>
      <trkpt lat="43.95923" lon="2.50208">
        <ele>419</ele>
        <time>2017-06-26T06:52:02Z</time>
      </trkpt>
      <trkpt lat="43.95922" lon="2.50217">
        <ele>416</ele>
        <time>2017-06-26T06:52:05Z</time>
      </trkpt>
      <trkpt lat="43.95924" lon="2.50225">
        <ele>414</ele>
        <time>2017-06-26T06:52:08Z</time>
      </trkpt>
      <trkpt lat="43.95926" lon="2.50233">
        <ele>413</ele>
        <time>2017-06-26T06:52:11Z</time>
      </trkpt>
      <trkpt lat="43.95926" lon="2.5024">
        <ele>411</ele>
        <time>2017-06-26T06:52:13Z</time>
      </trkpt>
      <trkpt lat="43.95924" lon="2.50246">
        <ele>417</ele>
        <time>2017-06-26T06:52:15Z</time>
      </trkpt>
      <trkpt lat="43.95923" lon="2.50253">
        <ele>418</ele>
        <time>2017-06-26T06:52:17Z</time>
      </trkpt>
      <trkpt lat="43.9592" lon="2.50259">
        <ele>418</ele>
        <time>2017-06-26T06:52:19Z</time>
      </trkpt>
      <trkpt lat="43.95919" lon="2.50267">
        <ele>418</ele>
        <time>2017-06-26T06:52:21Z</time>
      </trkpt>
      <trkpt lat="43.95919" lon="2.50275">
        <ele>418</ele>
        <time>2017-06-26T06:52:23Z</time>
      </trkpt>
      <trkpt lat="43.9592" lon="2.50283">
        <ele>419</ele>
        <time>2017-06-26T06:52:25Z</time>
      </trkpt>
      <trkpt lat="43.95921" lon="2.5029">
        <ele>420</ele>
        <time>2017-06-26T06:52:27Z</time>
      </trkpt>
      <trkpt lat="43.95922" lon="2.50297">
        <ele>420</ele>
        <time>2017-06-26T06:52:29Z</time>
      </trkpt>
      <trkpt lat="43.95924" lon="2.50303">
        <ele>421</ele>
        <time>2017-06-26T06:52:31Z</time>
      </trkpt>
      <trkpt lat="43.95925" lon="2.5031">
        <ele>421</ele>
        <time>2017-06-26T06:52:33Z</time>
      </trkpt>
      <trkpt lat="43.95925" lon="2.50318">
        <ele>421</ele>
        <time>2017-06-26T06:52:35Z</time>
      </trkpt>
      <trkpt lat="43.95925" lon="2.50325">
        <ele>422</ele>
        <time>2017-06-26T06:52:37Z</time>
      </trkpt>
      <trkpt lat="43.95926" lon="2.50332">
        <ele>423</ele>
        <time>2017-06-26T06:52:39Z</time>
      </trkpt>
      <trkpt lat="43.95926" lon="2.50338">
        <ele>423</ele>
        <time>2017-06-26T06:52:41Z</time>
      </trkpt>
      <trkpt lat="43.95928" lon="2.50346">
        <ele>424</ele>
        <time>2017-06-26T06:52:44Z</time>
      </trkpt>
      <trkpt lat="43.95928" lon="2.50354">
        <ele>425</ele>
        <time>2017-06-26T06:52:47Z</time>
      </trkpt>
      <trkpt lat="43.95928" lon="2.50361">
        <ele>426</ele>
        <time>2017-06-26T06:52:49Z</time>
      </trkpt>
      <trkpt lat="43.95931" lon="2.50367">
        <ele>427</ele>
        <time>2017-06-26T06:52:51Z</time>
      </trkpt>
      <trkpt lat="43.95935" lon="2.50373">
        <ele>429</ele>
        <time>2017-06-26T06:52:53Z</time>
      </trkpt>
      <trkpt lat="43.9594" lon="2.50377">
        <ele>430</ele>
        <time>2017-06-26T06:52:55Z</time>
      </trkpt>
      <trkpt lat="43.95945" lon="2.50383">
        <ele>431</ele>
        <time>2017-06-26T06:52:58Z</time>
      </trkpt>
      <trkpt lat="43.95948" lon="2.50388">
        <ele>431</ele>
        <time>2017-06-26T06:53:00Z</time>
      </trkpt>
      <trkpt lat="43.95952" lon="2.50392">
        <ele>432</ele>
        <time>2017-06-26T06:53:02Z</time>
      </trkpt>
      <trkpt lat="43.95956" lon="2.50396">
        <ele>433</ele>
        <time>2017-06-26T06:53:04Z</time>
      </trkpt>
      <trkpt lat="43.95961" lon="2.50398">
        <ele>435</ele>
        <time>2017-06-26T06:53:06Z</time>
      </trkpt>
      <trkpt lat="43.95966" lon="2.50401">
        <ele>435</ele>
        <time>2017-06-26T06:53:08Z</time>
      </trkpt>
      <trkpt lat="43.95971" lon="2.50405">
        <ele>436</ele>
        <time>2017-06-26T06:53:10Z</time>
      </trkpt>
      <trkpt lat="43.95976" lon="2.5041">
        <ele>436</ele>
        <time>2017-06-26T06:53:13Z</time>
      </trkpt>
      <trkpt lat="43.95978" lon="2.50417">
        <ele>437</ele>
        <time>2017-06-26T06:53:15Z</time>
      </trkpt>
      <trkpt lat="43.95981" lon="2.50425">
        <ele>437</ele>
        <time>2017-06-26T06:53:17Z</time>
      </trkpt>
      <trkpt lat="43.95984" lon="2.50431">
        <ele>438</ele>
        <time>2017-06-26T06:53:19Z</time>
      </trkpt>
      <trkpt lat="43.95988" lon="2.50436">
        <ele>440</ele>
        <time>2017-06-26T06:53:22Z</time>
      </trkpt>
      <trkpt lat="43.9599" lon="2.50444">
        <ele>441</ele>
        <time>2017-06-26T06:53:26Z</time>
      </trkpt>
      <trkpt lat="43.95994" lon="2.50448">
        <ele>441</ele>
        <time>2017-06-26T06:53:28Z</time>
      </trkpt>
      <trkpt lat="43.95997" lon="2.50456">
        <ele>441</ele>
        <time>2017-06-26T06:53:31Z</time>
      </trkpt>
      <trkpt lat="43.95998" lon="2.50463">
        <ele>441</ele>
        <time>2017-06-26T06:53:33Z</time>
      </trkpt>
      <trkpt lat="43.96" lon="2.50468">
        <ele>440</ele>
        <time>2017-06-26T06:53:35Z</time>
      </trkpt>
      <trkpt lat="43.96003" lon="2.50474">
        <ele>439</ele>
        <time>2017-06-26T06:53:37Z</time>
      </trkpt>
      <trkpt lat="43.96005" lon="2.5048">
        <ele>438</ele>
        <time>2017-06-26T06:53:39Z</time>
      </trkpt>
      <trkpt lat="43.96007" lon="2.50486">
        <ele>438</ele>
        <time>2017-06-26T06:53:42Z</time>
      </trkpt>
      <trkpt lat="43.96011" lon="2.50491">
        <ele>437</ele>
        <time>2017-06-26T06:53:44Z</time>
      </trkpt>
      <trkpt lat="43.96017" lon="2.50494">
        <ele>436</ele>
        <time>2017-06-26T06:53:46Z</time>
      </trkpt>
      <trkpt lat="43.96022" lon="2.50497">
        <ele>424</ele>
        <time>2017-06-26T06:53:48Z</time>
      </trkpt>
      <trkpt lat="43.96026" lon="2.50503">
        <ele>415</ele>
        <time>2017-06-26T06:53:50Z</time>
      </trkpt>
      <trkpt lat="43.96027" lon="2.50509">
        <ele>409</ele>
        <time>2017-06-26T06:53:52Z</time>
      </trkpt>
      <trkpt lat="43.9603" lon="2.50516">
        <ele>405</ele>
        <time>2017-06-26T06:53:54Z</time>
      </trkpt>
      <trkpt lat="43.96035" lon="2.50522">
        <ele>402</ele>
        <time>2017-06-26T06:53:57Z</time>
      </trkpt>
      <trkpt lat="43.96038" lon="2.50526">
        <ele>411</ele>
        <time>2017-06-26T06:53:59Z</time>
      </trkpt>
      <trkpt lat="43.96042" lon="2.50531">
        <ele>416</ele>
        <time>2017-06-26T06:54:01Z</time>
      </trkpt>
      <trkpt lat="43.96046" lon="2.50536">
        <ele>420</ele>
        <time>2017-06-26T06:54:03Z</time>
      </trkpt>
      <trkpt lat="43.9605" lon="2.50541">
        <ele>420</ele>
        <time>2017-06-26T06:54:05Z</time>
      </trkpt>
      <trkpt lat="43.96055" lon="2.50546">
        <ele>421</ele>
        <time>2017-06-26T06:54:07Z</time>
      </trkpt>
      <trkpt lat="43.96061" lon="2.50549">
        <ele>422</ele>
        <time>2017-06-26T06:54:09Z</time>
      </trkpt>
      <trkpt lat="43.96066" lon="2.50552">
        <ele>422</ele>
        <time>2017-06-26T06:54:11Z</time>
      </trkpt>
      <trkpt lat="43.96071" lon="2.50555">
        <ele>423</ele>
        <time>2017-06-26T06:54:13Z</time>
      </trkpt>
      <trkpt lat="43.96077" lon="2.50558">
        <ele>423</ele>
        <time>2017-06-26T06:54:15Z</time>
      </trkpt>
      <trkpt lat="43.96082" lon="2.50562">
        <ele>423</ele>
        <time>2017-06-26T06:54:17Z</time>
      </trkpt>
      <trkpt lat="43.96086" lon="2.50567">
        <ele>415</ele>
        <time>2017-06-26T06:54:19Z</time>
      </trkpt>
      <trkpt lat="43.96091" lon="2.50572">
        <ele>410</ele>
        <time>2017-06-26T06:54:21Z</time>
      </trkpt>
      <trkpt lat="43.96094" lon="2.50577">
        <ele>405</ele>
        <time>2017-06-26T06:54:23Z</time>
      </trkpt>
      <trkpt lat="43.96095" lon="2.50586">
        <ele>402</ele>
        <time>2017-06-26T06:54:26Z</time>
      </trkpt>
      <trkpt lat="43.96092" lon="2.50592">
        <ele>391</ele>
        <time>2017-06-26T06:54:28Z</time>
      </trkpt>
      <trkpt lat="43.96088" lon="2.50597">
        <ele>392</ele>
        <time>2017-06-26T06:54:30Z</time>
      </trkpt>
      <trkpt lat="43.96086" lon="2.50604">
        <ele>394</ele>
        <time>2017-06-26T06:54:33Z</time>
      </trkpt>
      <trkpt lat="43.96084" lon="2.5061">
        <ele>397</ele>
        <time>2017-06-26T06:54:35Z</time>
      </trkpt>
      <trkpt lat="43.96082" lon="2.50618">
        <ele>399</ele>
        <time>2017-06-26T06:54:37Z</time>
      </trkpt>
      <trkpt lat="43.9608" lon="2.50627">
        <ele>409</ele>
        <time>2017-06-26T06:54:39Z</time>
      </trkpt>
      <trkpt lat="43.9608" lon="2.50634">
        <ele>415</ele>
        <time>2017-06-26T06:54:41Z</time>
      </trkpt>
      <trkpt lat="43.96081" lon="2.50642">
        <ele>418</ele>
        <time>2017-06-26T06:54:44Z</time>
      </trkpt>
      <trkpt lat="43.96082" lon="2.50649">
        <ele>418</ele>
        <time>2017-06-26T06:54:47Z</time>
      </trkpt>
      <trkpt lat="43.96082" lon="2.50657">
        <ele>413</ele>
        <time>2017-06-26T06:54:50Z</time>
      </trkpt>
      <trkpt lat="43.96083" lon="2.50664">
        <ele>411</ele>
        <time>2017-06-26T06:54:52Z</time>
      </trkpt>
      <trkpt lat="43.96083" lon="2.50671">
        <ele>410</ele>
        <time>2017-06-26T06:54:55Z</time>
      </trkpt>
      <trkpt lat="43.9608" lon="2.50679">
        <ele>409</ele>
        <time>2017-06-26T06:54:58Z</time>
      </trkpt>
      <trkpt lat="43.9608" lon="2.50685">
        <ele>409</ele>
        <time>2017-06-26T06:55:01Z</time>
      </trkpt>
      <trkpt lat="43.96077" lon="2.50692">
        <ele>414</ele>
        <time>2017-06-26T06:55:03Z</time>
      </trkpt>
      <trkpt lat="43.96075" lon="2.50699">
        <ele>417</ele>
        <time>2017-06-26T06:55:05Z</time>
      </trkpt>
      <trkpt lat="43.96075" lon="2.50706">
        <ele>418</ele>
        <time>2017-06-26T06:55:07Z</time>
      </trkpt>
      <trkpt lat="43.96076" lon="2.50713">
        <ele>419</ele>
        <time>2017-06-26T06:55:09Z</time>
      </trkpt>
      <trkpt lat="43.96075" lon="2.50722">
        <ele>419</ele>
        <time>2017-06-26T06:55:12Z</time>
      </trkpt>
      <trkpt lat="43.96076" lon="2.50728">
        <ele>421</ele>
        <time>2017-06-26T06:55:14Z</time>
      </trkpt>
      <trkpt lat="43.96076" lon="2.50737">
        <ele>422</ele>
        <time>2017-06-26T06:55:17Z</time>
      </trkpt>
      <trkpt lat="43.96077" lon="2.50746">
        <ele>423</ele>
        <time>2017-06-26T06:55:20Z</time>
      </trkpt>
      <trkpt lat="43.96077" lon="2.50755">
        <ele>425</ele>
        <time>2017-06-26T06:55:23Z</time>
      </trkpt>
      <trkpt lat="43.96077" lon="2.50762">
        <ele>421</ele>
        <time>2017-06-26T06:55:25Z</time>
      </trkpt>
      <trkpt lat="43.96077" lon="2.50768">
        <ele>419</ele>
        <time>2017-06-26T06:55:27Z</time>
      </trkpt>
      <trkpt lat="43.96076" lon="2.50776">
        <ele>418</ele>
        <time>2017-06-26T06:55:29Z</time>
      </trkpt>
      <trkpt lat="43.96077" lon="2.50785">
        <ele>418</ele>
        <time>2017-06-26T06:55:32Z</time>
      </trkpt>
      <trkpt lat="43.9608" lon="2.50791">
        <ele>419</ele>
        <time>2017-06-26T06:55:34Z</time>
      </trkpt>
      <trkpt lat="43.96082" lon="2.50797">
        <ele>426</ele>
        <time>2017-06-26T06:55:36Z</time>
      </trkpt>
      <trkpt lat="43.96084" lon="2.50803">
        <ele>430</ele>
        <time>2017-06-26T06:55:38Z</time>
      </trkpt>
      <trkpt lat="43.96086" lon="2.50812">
        <ele>432</ele>
        <time>2017-06-26T06:55:41Z</time>
      </trkpt>
      <trkpt lat="43.9609" lon="2.5082">
        <ele>433</ele>
        <time>2017-06-26T06:55:44Z</time>
      </trkpt>
      <trkpt lat="43.96092" lon="2.50825">
        <ele>433</ele>
        <time>2017-06-26T06:55:47Z</time>
      </trkpt>
      <trkpt lat="43.96095" lon="2.5083">
        <ele>433</ele>
        <time>2017-06-26T06:55:49Z</time>
      </trkpt>
      <trkpt lat="43.961" lon="2.50836">
        <ele>433</ele>
        <time>2017-06-26T06:55:53Z</time>
      </trkpt>
      <trkpt lat="43.96103" lon="2.50841">
        <ele>433</ele>
        <time>2017-06-26T06:55:58Z</time>
      </trkpt>
      <trkpt lat="43.96104" lon="2.50848">
        <ele>434</ele>
        <time>2017-06-26T06:56:02Z</time>
      </trkpt>
      <trkpt lat="43.96106" lon="2.50855">
        <ele>435</ele>
        <time>2017-06-26T06:56:06Z</time>
      </trkpt>
      <trkpt lat="43.96111" lon="2.5086">
        <ele>436</ele>
        <time>2017-06-26T06:56:11Z</time>
      </trkpt>
      <trkpt lat="43.96114" lon="2.50865">
        <ele>436</ele>
        <time>2017-06-26T06:56:16Z</time>
      </trkpt>
      <trkpt lat="43.96117" lon="2.50872">
        <ele>428</ele>
        <time>2017-06-26T06:56:19Z</time>
      </trkpt>
      <trkpt lat="43.96117" lon="2.50878">
        <ele>423</ele>
        <time>2017-06-26T06:56:21Z</time>
      </trkpt>
      <trkpt lat="43.96112" lon="2.50885">
        <ele>420</ele>
        <time>2017-06-26T06:56:24Z</time>
      </trkpt>
      <trkpt lat="43.96106" lon="2.50885">
        <ele>419</ele>
        <time>2017-06-26T06:56:27Z</time>
      </trkpt>
      <trkpt lat="43.96101" lon="2.50886">
        <ele>419</ele>
        <time>2017-06-26T06:56:29Z</time>
      </trkpt>
      <trkpt lat="43.96096" lon="2.50889">
        <ele>427</ele>
        <time>2017-06-26T06:56:31Z</time>
      </trkpt>
      <trkpt lat="43.96092" lon="2.50893">
        <ele>433</ele>
        <time>2017-06-26T06:56:33Z</time>
      </trkpt>
      <trkpt lat="43.96087" lon="2.50898">
        <ele>434</ele>
        <time>2017-06-26T06:56:36Z</time>
      </trkpt>
      <trkpt lat="43.96085" lon="2.50906">
        <ele>434</ele>
        <time>2017-06-26T06:56:38Z</time>
      </trkpt>
      <trkpt lat="43.96085" lon="2.50915">
        <ele>433</ele>
        <time>2017-06-26T06:56:40Z</time>
      </trkpt>
      <trkpt lat="43.96084" lon="2.50924">
        <ele>432</ele>
        <time>2017-06-26T06:56:42Z</time>
      </trkpt>
      <trkpt lat="43.96085" lon="2.50931">
        <ele>432</ele>
        <time>2017-06-26T06:56:44Z</time>
      </trkpt>
      <trkpt lat="43.96087" lon="2.50939">
        <ele>431</ele>
        <time>2017-06-26T06:56:46Z</time>
      </trkpt>
      <trkpt lat="43.96089" lon="2.50946">
        <ele>431</ele>
        <time>2017-06-26T06:56:48Z</time>
      </trkpt>
      <trkpt lat="43.9609" lon="2.50954">
        <ele>431</ele>
        <time>2017-06-26T06:56:50Z</time>
      </trkpt>
      <trkpt lat="43.9609" lon="2.5096">
        <ele>430</ele>
        <time>2017-06-26T06:56:52Z</time>
      </trkpt>
      <trkpt lat="43.9609" lon="2.50967">
        <ele>430</ele>
        <time>2017-06-26T06:56:54Z</time>
      </trkpt>
      <trkpt lat="43.9609" lon="2.50974">
        <ele>429</ele>
        <time>2017-06-26T06:56:56Z</time>
      </trkpt>
      <trkpt lat="43.96092" lon="2.50982">
        <ele>429</ele>
        <time>2017-06-26T06:56:58Z</time>
      </trkpt>
      <trkpt lat="43.96094" lon="2.50988">
        <ele>429</ele>
        <time>2017-06-26T06:57:00Z</time>
      </trkpt>
      <trkpt lat="43.96095" lon="2.50995">
        <ele>429</ele>
        <time>2017-06-26T06:57:02Z</time>
      </trkpt>
      <trkpt lat="43.96096" lon="2.51002">
        <ele>429</ele>
        <time>2017-06-26T06:57:04Z</time>
      </trkpt>
      <trkpt lat="43.96096" lon="2.51009">
        <ele>429</ele>
        <time>2017-06-26T06:57:07Z</time>
      </trkpt>
      <trkpt lat="43.96096" lon="2.51017">
        <ele>429</ele>
        <time>2017-06-26T06:57:09Z</time>
      </trkpt>
      <trkpt lat="43.96095" lon="2.51025">
        <ele>429</ele>
        <time>2017-06-26T06:57:11Z</time>
      </trkpt>
      <trkpt lat="43.96095" lon="2.51033">
        <ele>429</ele>
        <time>2017-06-26T06:57:13Z</time>
      </trkpt>
      <trkpt lat="43.96092" lon="2.51039">
        <ele>429</ele>
        <time>2017-06-26T06:57:15Z</time>
      </trkpt>
      <trkpt lat="43.9609" lon="2.51046">
        <ele>429</ele>
        <time>2017-06-26T06:57:17Z</time>
      </trkpt>
      <trkpt lat="43.96088" lon="2.51054">
        <ele>429</ele>
        <time>2017-06-26T06:57:19Z</time>
      </trkpt>
      <trkpt lat="43.96085" lon="2.51062">
        <ele>429</ele>
        <time>2017-06-26T06:57:21Z</time>
      </trkpt>
      <trkpt lat="43.96082" lon="2.51067">
        <ele>429</ele>
        <time>2017-06-26T06:57:23Z</time>
      </trkpt>
      <trkpt lat="43.96081" lon="2.51075">
        <ele>429</ele>
        <time>2017-06-26T06:57:26Z</time>
      </trkpt>
      <trkpt lat="43.96083" lon="2.51083">
        <ele>429</ele>
        <time>2017-06-26T06:57:29Z</time>
      </trkpt>
      <trkpt lat="43.96087" lon="2.5109">
        <ele>428</ele>
        <time>2017-06-26T06:57:32Z</time>
      </trkpt>
      <trkpt lat="43.9609" lon="2.51096">
        <ele>426</ele>
        <time>2017-06-26T06:57:34Z</time>
      </trkpt>
      <trkpt lat="43.96094" lon="2.51103">
        <ele>426</ele>
        <time>2017-06-26T06:57:36Z</time>
      </trkpt>
      <trkpt lat="43.96097" lon="2.51111">
        <ele>425</ele>
        <time>2017-06-26T06:57:38Z</time>
      </trkpt>
      <trkpt lat="43.96098" lon="2.51119">
        <ele>425</ele>
        <time>2017-06-26T06:57:40Z</time>
      </trkpt>
      <trkpt lat="43.96096" lon="2.51129">
        <ele>424</ele>
        <time>2017-06-26T06:57:42Z</time>
      </trkpt>
      <trkpt lat="43.96095" lon="2.5114">
        <ele>417</ele>
        <time>2017-06-26T06:57:44Z</time>
      </trkpt>
      <trkpt lat="43.96094" lon="2.5115">
        <ele>413</ele>
        <time>2017-06-26T06:57:46Z</time>
      </trkpt>
      <trkpt lat="43.96093" lon="2.51159">
        <ele>411</ele>
        <time>2017-06-26T06:57:48Z</time>
      </trkpt>
      <trkpt lat="43.96093" lon="2.51168">
        <ele>410</ele>
        <time>2017-06-26T06:57:50Z</time>
      </trkpt>
      <trkpt lat="43.96093" lon="2.51174">
        <ele>409</ele>
        <time>2017-06-26T06:57:52Z</time>
      </trkpt>
      <trkpt lat="43.96093" lon="2.51182">
        <ele>415</ele>
        <time>2017-06-26T06:57:54Z</time>
      </trkpt>
      <trkpt lat="43.96094" lon="2.5119">
        <ele>419</ele>
        <time>2017-06-26T06:57:56Z</time>
      </trkpt>
      <trkpt lat="43.96096" lon="2.51197">
        <ele>420</ele>
        <time>2017-06-26T06:57:58Z</time>
      </trkpt>
      <trkpt lat="43.96099" lon="2.51204">
        <ele>421</ele>
        <time>2017-06-26T06:58:00Z</time>
      </trkpt>
      <trkpt lat="43.96102" lon="2.5121">
        <ele>421</ele>
        <time>2017-06-26T06:58:02Z</time>
      </trkpt>
      <trkpt lat="43.96104" lon="2.51217">
        <ele>422</ele>
        <time>2017-06-26T06:58:04Z</time>
      </trkpt>
      <trkpt lat="43.96106" lon="2.51225">
        <ele>422</ele>
        <time>2017-06-26T06:58:06Z</time>
      </trkpt>
      <trkpt lat="43.96107" lon="2.51233">
        <ele>422</ele>
        <time>2017-06-26T06:58:08Z</time>
      </trkpt>
      <trkpt lat="43.9611" lon="2.51238">
        <ele>422</ele>
        <time>2017-06-26T06:58:10Z</time>
      </trkpt>
      <trkpt lat="43.96114" lon="2.51242">
        <ele>420</ele>
        <time>2017-06-26T06:58:12Z</time>
      </trkpt>
      <trkpt lat="43.96118" lon="2.51245">
        <ele>419</ele>
        <time>2017-06-26T06:58:14Z</time>
      </trkpt>
      <trkpt lat="43.96122" lon="2.51249">
        <ele>417</ele>
        <time>2017-06-26T06:58:16Z</time>
      </trkpt>
      <trkpt lat="43.96128" lon="2.51254">
        <ele>416</ele>
        <time>2017-06-26T06:58:18Z</time>
      </trkpt>
      <trkpt lat="43.96135" lon="2.51261">
        <ele>415</ele>
        <time>2017-06-26T06:58:20Z</time>
      </trkpt>
      <trkpt lat="43.9614" lon="2.51267">
        <ele>416</ele>
        <time>2017-06-26T06:58:22Z</time>
      </trkpt>
      <trkpt lat="43.96141" lon="2.51274">
        <ele>415</ele>
        <time>2017-06-26T06:58:24Z</time>
      </trkpt>
      <trkpt lat="43.9614" lon="2.51282">
        <ele>415</ele>
        <time>2017-06-26T06:58:26Z</time>
      </trkpt>
      <trkpt lat="43.9614" lon="2.51289">
        <ele>415</ele>
        <time>2017-06-26T06:58:28Z</time>
      </trkpt>
      <trkpt lat="43.96141" lon="2.51298">
        <ele>414</ele>
        <time>2017-06-26T06:58:31Z</time>
      </trkpt>
      <trkpt lat="43.96143" lon="2.51305">
        <ele>413</ele>
        <time>2017-06-26T06:58:33Z</time>
      </trkpt>
      <trkpt lat="43.96145" lon="2.51313">
        <ele>406</ele>
        <time>2017-06-26T06:58:35Z</time>
      </trkpt>
      <trkpt lat="43.96147" lon="2.51322">
        <ele>403</ele>
        <time>2017-06-26T06:58:37Z</time>
      </trkpt>
      <trkpt lat="43.96148" lon="2.5133">
        <ele>401</ele>
        <time>2017-06-26T06:58:39Z</time>
      </trkpt>
      <trkpt lat="43.9615" lon="2.51338">
        <ele>400</ele>
        <time>2017-06-26T06:58:41Z</time>
      </trkpt>
      <trkpt lat="43.96151" lon="2.51346">
        <ele>399</ele>
        <time>2017-06-26T06:58:43Z</time>
      </trkpt>
      <trkpt lat="43.96154" lon="2.51353">
        <ele>404</ele>
        <time>2017-06-26T06:58:45Z</time>
      </trkpt>
      <trkpt lat="43.96156" lon="2.51359">
        <ele>407</ele>
        <time>2017-06-26T06:58:47Z</time>
      </trkpt>
      <trkpt lat="43.96159" lon="2.51366">
        <ele>408</ele>
        <time>2017-06-26T06:58:49Z</time>
      </trkpt>
      <trkpt lat="43.96161" lon="2.51373">
        <ele>409</ele>
        <time>2017-06-26T06:58:51Z</time>
      </trkpt>
      <trkpt lat="43.96164" lon="2.51379">
        <ele>410</ele>
        <time>2017-06-26T06:58:53Z</time>
      </trkpt>
      <trkpt lat="43.96164" lon="2.51386">
        <ele>410</ele>
        <time>2017-06-26T06:58:55Z</time>
      </trkpt>
      <trkpt lat="43.96165" lon="2.51394">
        <ele>410</ele>
        <time>2017-06-26T06:58:57Z</time>
      </trkpt>
      <trkpt lat="43.96166" lon="2.51401">
        <ele>408</ele>
        <time>2017-06-26T06:58:59Z</time>
      </trkpt>
      <trkpt lat="43.96166" lon="2.5141">
        <ele>407</ele>
        <time>2017-06-26T06:59:01Z</time>
      </trkpt>
      <trkpt lat="43.96167" lon="2.51417">
        <ele>406</ele>
        <time>2017-06-26T06:59:03Z</time>
      </trkpt>
      <trkpt lat="43.9617" lon="2.51425">
        <ele>406</ele>
        <time>2017-06-26T06:59:06Z</time>
      </trkpt>
      <trkpt lat="43.9617" lon="2.51431">
        <ele>405</ele>
        <time>2017-06-26T06:59:08Z</time>
      </trkpt>
      <trkpt lat="43.96169" lon="2.51438">
        <ele>406</ele>
        <time>2017-06-26T06:59:10Z</time>
      </trkpt>
      <trkpt lat="43.96169" lon="2.51445">
        <ele>406</ele>
        <time>2017-06-26T06:59:12Z</time>
      </trkpt>
      <trkpt lat="43.9617" lon="2.51451">
        <ele>406</ele>
        <time>2017-06-26T06:59:14Z</time>
      </trkpt>
      <trkpt lat="43.96171" lon="2.51457">
        <ele>406</ele>
        <time>2017-06-26T06:59:16Z</time>
      </trkpt>
      <trkpt lat="43.96172" lon="2.51464">
        <ele>406</ele>
        <time>2017-06-26T06:59:18Z</time>
      </trkpt>
      <trkpt lat="43.96172" lon="2.51472">
        <ele>406</ele>
        <time>2017-06-26T06:59:20Z</time>
      </trkpt>
      <trkpt lat="43.96175" lon="2.5148">
        <ele>405</ele>
        <time>2017-06-26T06:59:23Z</time>
      </trkpt>
      <trkpt lat="43.96177" lon="2.51486">
        <ele>405</ele>
        <time>2017-06-26T06:59:25Z</time>
      </trkpt>
      <trkpt lat="43.96179" lon="2.51494">
        <ele>405</ele>
        <time>2017-06-26T06:59:27Z</time>
      </trkpt>
      <trkpt lat="43.9618" lon="2.515">
        <ele>406</ele>
        <time>2017-06-26T06:59:29Z</time>
      </trkpt>
      <trkpt lat="43.96182" lon="2.51508">
        <ele>406</ele>
        <time>2017-06-26T06:59:31Z</time>
      </trkpt>
      <trkpt lat="43.96183" lon="2.51515">
        <ele>407</ele>
        <time>2017-06-26T06:59:33Z</time>
      </trkpt>
      <trkpt lat="43.96185" lon="2.51522">
        <ele>407</ele>
        <time>2017-06-26T06:59:35Z</time>
      </trkpt>
      <trkpt lat="43.96188" lon="2.51528">
        <ele>407</ele>
        <time>2017-06-26T06:59:37Z</time>
      </trkpt>
      <trkpt lat="43.96191" lon="2.51532">
        <ele>407</ele>
        <time>2017-06-26T06:59:39Z</time>
      </trkpt>
      <trkpt lat="43.96195" lon="2.5154">
        <ele>406</ele>
        <time>2017-06-26T06:59:42Z</time>
      </trkpt>
      <trkpt lat="43.96198" lon="2.51547">
        <ele>406</ele>
        <time>2017-06-26T06:59:44Z</time>
      </trkpt>
      <trkpt lat="43.962" lon="2.51554">
        <ele>406</ele>
        <time>2017-06-26T06:59:46Z</time>
      </trkpt>
      <trkpt lat="43.96203" lon="2.51562">
        <ele>407</ele>
        <time>2017-06-26T06:59:48Z</time>
      </trkpt>
      <trkpt lat="43.96207" lon="2.51569">
        <ele>408</ele>
        <time>2017-06-26T06:59:50Z</time>
      </trkpt>
      <trkpt lat="43.96211" lon="2.51575">
        <ele>408</ele>
        <time>2017-06-26T06:59:53Z</time>
      </trkpt>
      <trkpt lat="43.96219" lon="2.51577">
        <ele>409</ele>
        <time>2017-06-26T06:59:56Z</time>
      </trkpt>
      <trkpt lat="43.96224" lon="2.51576">
        <ele>409</ele>
        <time>2017-06-26T06:59:58Z</time>
      </trkpt>
      <trkpt lat="43.9623" lon="2.51576">
        <ele>410</ele>
        <time>2017-06-26T07:00:00Z</time>
      </trkpt>
      <trkpt lat="43.96235" lon="2.51575">
        <ele>409</ele>
        <time>2017-06-26T07:00:02Z</time>
      </trkpt>
      <trkpt lat="43.96239" lon="2.51577">
        <ele>410</ele>
        <time>2017-06-26T07:00:04Z</time>
      </trkpt>
      <trkpt lat="43.96242" lon="2.51583">
        <ele>410</ele>
        <time>2017-06-26T07:00:06Z</time>
      </trkpt>
      <trkpt lat="43.96247" lon="2.5159">
        <ele>405</ele>
        <time>2017-06-26T07:00:08Z</time>
      </trkpt>
      <trkpt lat="43.96252" lon="2.51595">
        <ele>400</ele>
        <time>2017-06-26T07:00:10Z</time>
      </trkpt>
      <trkpt lat="43.96257" lon="2.51598">
        <ele>397</ele>
        <time>2017-06-26T07:00:12Z</time>
      </trkpt>
      <trkpt lat="43.96262" lon="2.516">
        <ele>396</ele>
        <time>2017-06-26T07:00:14Z</time>
      </trkpt>
      <trkpt lat="43.96268" lon="2.51604">
        <ele>394</ele>
        <time>2017-06-26T07:00:16Z</time>
      </trkpt>
      <trkpt lat="43.96273" lon="2.51607">
        <ele>399</ele>
        <time>2017-06-26T07:00:18Z</time>
      </trkpt>
      <trkpt lat="43.96279" lon="2.51611">
        <ele>403</ele>
        <time>2017-06-26T07:00:21Z</time>
      </trkpt>
      <trkpt lat="43.96283" lon="2.51615">
        <ele>405</ele>
        <time>2017-06-26T07:00:23Z</time>
      </trkpt>
      <trkpt lat="43.96288" lon="2.51618">
        <ele>406</ele>
        <time>2017-06-26T07:00:25Z</time>
      </trkpt>
      <trkpt lat="43.96292" lon="2.51623">
        <ele>401</ele>
        <time>2017-06-26T07:00:29Z</time>
      </trkpt>
      <trkpt lat="43.96294" lon="2.51629">
        <ele>400</ele>
        <time>2017-06-26T07:00:33Z</time>
      </trkpt>
      <trkpt lat="43.96299" lon="2.51633">
        <ele>400</ele>
        <time>2017-06-26T07:00:38Z</time>
      </trkpt>
      <trkpt lat="43.96303" lon="2.51633">
        <ele>400</ele>
        <time>2017-06-26T07:00:42Z</time>
      </trkpt>
      <trkpt lat="43.96309" lon="2.51631">
        <ele>400</ele>
        <time>2017-06-26T07:00:46Z</time>
      </trkpt>
      <trkpt lat="43.96314" lon="2.5163">
        <ele>405</ele>
        <time>2017-06-26T07:00:50Z</time>
      </trkpt>
      <trkpt lat="43.96319" lon="2.51628">
        <ele>405</ele>
        <time>2017-06-26T07:00:54Z</time>
      </trkpt>
      <trkpt lat="43.96325" lon="2.51626">
        <ele>404</ele>
        <time>2017-06-26T07:00:57Z</time>
      </trkpt>
      <trkpt lat="43.9633" lon="2.51625">
        <ele>404</ele>
        <time>2017-06-26T07:00:59Z</time>
      </trkpt>
      <trkpt lat="43.96336" lon="2.51622">
        <ele>403</ele>
        <time>2017-06-26T07:01:01Z</time>
      </trkpt>
      <trkpt lat="43.9634" lon="2.5162">
        <ele>402</ele>
        <time>2017-06-26T07:01:03Z</time>
      </trkpt>
      <trkpt lat="43.96346" lon="2.51617">
        <ele>402</ele>
        <time>2017-06-26T07:01:05Z</time>
      </trkpt>
      <trkpt lat="43.96351" lon="2.51618">
        <ele>402</ele>
        <time>2017-06-26T07:01:07Z</time>
      </trkpt>
      <trkpt lat="43.96357" lon="2.51619">
        <ele>402</ele>
        <time>2017-06-26T07:01:09Z</time>
      </trkpt>
      <trkpt lat="43.96363" lon="2.5162">
        <ele>401</ele>
        <time>2017-06-26T07:01:11Z</time>
      </trkpt>
      <trkpt lat="43.9637" lon="2.51621">
        <ele>401</ele>
        <time>2017-06-26T07:01:13Z</time>
      </trkpt>
      <trkpt lat="43.96377" lon="2.51623">
        <ele>399</ele>
        <time>2017-06-26T07:01:15Z</time>
      </trkpt>
      <trkpt lat="43.96383" lon="2.51625">
        <ele>397</ele>
        <time>2017-06-26T07:01:17Z</time>
      </trkpt>
      <trkpt lat="43.96389" lon="2.51627">
        <ele>395</ele>
        <time>2017-06-26T07:01:19Z</time>
      </trkpt>
      <trkpt lat="43.96395" lon="2.51629">
        <ele>394</ele>
        <time>2017-06-26T07:01:21Z</time>
      </trkpt>
      <trkpt lat="43.964" lon="2.51629">
        <ele>393</ele>
        <time>2017-06-26T07:01:23Z</time>
      </trkpt>
      <trkpt lat="43.96406" lon="2.51626">
        <ele>393</ele>
        <time>2017-06-26T07:01:26Z</time>
      </trkpt>
      <trkpt lat="43.96409" lon="2.51632">
        <ele>393</ele>
        <time>2017-06-26T07:01:30Z</time>
      </trkpt>
      <trkpt lat="43.96406" lon="2.51641">
        <ele>390</ele>
        <time>2017-06-26T07:01:32Z</time>
      </trkpt>
      <trkpt lat="43.96401" lon="2.51647">
        <ele>387</ele>
        <time>2017-06-26T07:01:34Z</time>
      </trkpt>
      <trkpt lat="43.96396" lon="2.51651">
        <ele>384</ele>
        <time>2017-06-26T07:01:36Z</time>
      </trkpt>
      <trkpt lat="43.96389" lon="2.51655">
        <ele>382</ele>
        <time>2017-06-26T07:01:39Z</time>
      </trkpt>
      <trkpt lat="43.96383" lon="2.51657">
        <ele>380</ele>
        <time>2017-06-26T07:01:41Z</time>
      </trkpt>
      <trkpt lat="43.96377" lon="2.51659">
        <ele>381</ele>
        <time>2017-06-26T07:01:43Z</time>
      </trkpt>
      <trkpt lat="43.96371" lon="2.51662">
        <ele>382</ele>
        <time>2017-06-26T07:01:46Z</time>
      </trkpt>
      <trkpt lat="43.96366" lon="2.51665">
        <ele>381</ele>
        <time>2017-06-26T07:01:48Z</time>
      </trkpt>
      <trkpt lat="43.96361" lon="2.51669">
        <ele>380</ele>
        <time>2017-06-26T07:01:50Z</time>
      </trkpt>
      <trkpt lat="43.96357" lon="2.51672">
        <ele>378</ele>
        <time>2017-06-26T07:01:52Z</time>
      </trkpt>
      <trkpt lat="43.96351" lon="2.51675">
        <ele>377</ele>
        <time>2017-06-26T07:01:54Z</time>
      </trkpt>
      <trkpt lat="43.96345" lon="2.51679">
        <ele>375</ele>
        <time>2017-06-26T07:01:57Z</time>
      </trkpt>
      <trkpt lat="43.96341" lon="2.51683">
        <ele>374</ele>
        <time>2017-06-26T07:01:59Z</time>
      </trkpt>
      <trkpt lat="43.96337" lon="2.51687">
        <ele>373</ele>
        <time>2017-06-26T07:02:01Z</time>
      </trkpt>
      <trkpt lat="43.96333" lon="2.51691">
        <ele>372</ele>
        <time>2017-06-26T07:02:03Z</time>
      </trkpt>
      <trkpt lat="43.96326" lon="2.51694">
        <ele>372</ele>
        <time>2017-06-26T07:02:06Z</time>
      </trkpt>
      <trkpt lat="43.96318" lon="2.51695">
        <ele>371</ele>
        <time>2017-06-26T07:02:08Z</time>
      </trkpt>
      <trkpt lat="43.9631" lon="2.51696">
        <ele>370</ele>
        <time>2017-06-26T07:02:10Z</time>
      </trkpt>
      <trkpt lat="43.96304" lon="2.51696">
        <ele>369</ele>
        <time>2017-06-26T07:02:12Z</time>
      </trkpt>
      <trkpt lat="43.963" lon="2.51694">
        <ele>368</ele>
        <time>2017-06-26T07:02:14Z</time>
      </trkpt>
      <trkpt lat="43.96295" lon="2.51694">
        <ele>367</ele>
        <time>2017-06-26T07:02:16Z</time>
      </trkpt>
      <trkpt lat="43.96288" lon="2.51694">
        <ele>366</ele>
        <time>2017-06-26T07:02:18Z</time>
      </trkpt>
      <trkpt lat="43.96282" lon="2.51689">
        <ele>365</ele>
        <time>2017-06-26T07:02:21Z</time>
      </trkpt>
      <trkpt lat="43.96276" lon="2.51687">
        <ele>365</ele>
        <time>2017-06-26T07:02:23Z</time>
      </trkpt>
      <trkpt lat="43.9627" lon="2.51685">
        <ele>364</ele>
        <time>2017-06-26T07:02:25Z</time>
      </trkpt>
      <trkpt lat="43.96266" lon="2.51683">
        <ele>363</ele>
        <time>2017-06-26T07:02:27Z</time>
      </trkpt>
      <trkpt lat="43.9626" lon="2.51678">
        <ele>362</ele>
        <time>2017-06-26T07:02:30Z</time>
      </trkpt>
      <trkpt lat="43.96255" lon="2.51674">
        <ele>359</ele>
        <time>2017-06-26T07:02:32Z</time>
      </trkpt>
      <trkpt lat="43.96251" lon="2.5167">
        <ele>357</ele>
        <time>2017-06-26T07:02:34Z</time>
      </trkpt>
      <trkpt lat="43.96247" lon="2.51667">
        <ele>355</ele>
        <time>2017-06-26T07:02:36Z</time>
      </trkpt>
      <trkpt lat="43.9624" lon="2.51665">
        <ele>354</ele>
        <time>2017-06-26T07:02:38Z</time>
      </trkpt>
      <trkpt lat="43.96234" lon="2.51664">
        <ele>353</ele>
        <time>2017-06-26T07:02:40Z</time>
      </trkpt>
      <trkpt lat="43.96228" lon="2.51664">
        <ele>352</ele>
        <time>2017-06-26T07:02:42Z</time>
      </trkpt>
      <trkpt lat="43.96221" lon="2.51664">
        <ele>352</ele>
        <time>2017-06-26T07:02:44Z</time>
      </trkpt>
      <trkpt lat="43.96214" lon="2.51666">
        <ele>352</ele>
        <time>2017-06-26T07:02:46Z</time>
      </trkpt>
      <trkpt lat="43.96206" lon="2.51668">
        <ele>353</ele>
        <time>2017-06-26T07:02:48Z</time>
      </trkpt>
      <trkpt lat="43.96201" lon="2.51669">
        <ele>353</ele>
        <time>2017-06-26T07:02:50Z</time>
      </trkpt>
      <trkpt lat="43.96194" lon="2.5167">
        <ele>356</ele>
        <time>2017-06-26T07:02:52Z</time>
      </trkpt>
      <trkpt lat="43.9619" lon="2.51671">
        <ele>358</ele>
        <time>2017-06-26T07:02:53Z</time>
      </trkpt>
      <trkpt lat="43.96185" lon="2.51671">
        <ele>359</ele>
        <time>2017-06-26T07:02:54Z</time>
      </trkpt>
      <trkpt lat="43.96178" lon="2.5167">
        <ele>360</ele>
        <time>2017-06-26T07:02:56Z</time>
      </trkpt>
      <trkpt lat="43.96172" lon="2.51669">
        <ele>361</ele>
        <time>2017-06-26T07:02:58Z</time>
      </trkpt>
      <trkpt lat="43.96166" lon="2.51666">
        <ele>361</ele>
        <time>2017-06-26T07:03:00Z</time>
      </trkpt>
      <trkpt lat="43.9616" lon="2.5166">
        <ele>360</ele>
        <time>2017-06-26T07:03:02Z</time>
      </trkpt>
      <trkpt lat="43.96155" lon="2.51653">
        <ele>359</ele>
        <time>2017-06-26T07:03:04Z</time>
      </trkpt>
      <trkpt lat="43.9615" lon="2.51646">
        <ele>359</ele>
        <time>2017-06-26T07:03:06Z</time>
      </trkpt>
      <trkpt lat="43.96146" lon="2.51639">
        <ele>359</ele>
        <time>2017-06-26T07:03:08Z</time>
      </trkpt>
      <trkpt lat="43.96143" lon="2.51631">
        <ele>360</ele>
        <time>2017-06-26T07:03:10Z</time>
      </trkpt>
      <trkpt lat="43.96141" lon="2.51621">
        <ele>361</ele>
        <time>2017-06-26T07:03:12Z</time>
      </trkpt>
      <trkpt lat="43.9614" lon="2.51611">
        <ele>362</ele>
        <time>2017-06-26T07:03:14Z</time>
      </trkpt>
      <trkpt lat="43.96138" lon="2.51602">
        <ele>363</ele>
        <time>2017-06-26T07:03:16Z</time>
      </trkpt>
      <trkpt lat="43.96135" lon="2.51596">
        <ele>363</ele>
        <time>2017-06-26T07:03:18Z</time>
      </trkpt>
      <trkpt lat="43.9613" lon="2.51588">
        <ele>363</ele>
        <time>2017-06-26T07:03:20Z</time>
      </trkpt>
      <trkpt lat="43.96127" lon="2.51581">
        <ele>364</ele>
        <time>2017-06-26T07:03:22Z</time>
      </trkpt>
      <trkpt lat="43.96125" lon="2.51574">
        <ele>363</ele>
        <time>2017-06-26T07:03:24Z</time>
      </trkpt>
      <trkpt lat="43.96124" lon="2.51568">
        <ele>362</ele>
        <time>2017-06-26T07:03:26Z</time>
      </trkpt>
      <trkpt lat="43.96122" lon="2.51561">
        <ele>361</ele>
        <time>2017-06-26T07:03:28Z</time>
      </trkpt>
      <trkpt lat="43.9612" lon="2.51554">
        <ele>360</ele>
        <time>2017-06-26T07:03:30Z</time>
      </trkpt>
      <trkpt lat="43.96119" lon="2.51546">
        <ele>358</ele>
        <time>2017-06-26T07:03:32Z</time>
      </trkpt>
      <trkpt lat="43.96117" lon="2.51539">
        <ele>357</ele>
        <time>2017-06-26T07:03:34Z</time>
      </trkpt>
      <trkpt lat="43.96116" lon="2.51531">
        <ele>357</ele>
        <time>2017-06-26T07:03:36Z</time>
      </trkpt>
      <trkpt lat="43.96114" lon="2.51523">
        <ele>357</ele>
        <time>2017-06-26T07:03:38Z</time>
      </trkpt>
      <trkpt lat="43.96111" lon="2.51514">
        <ele>358</ele>
        <time>2017-06-26T07:03:40Z</time>
      </trkpt>
      <trkpt lat="43.96109" lon="2.51506">
        <ele>358</ele>
        <time>2017-06-26T07:03:42Z</time>
      </trkpt>
      <trkpt lat="43.96109" lon="2.515">
        <ele>358</ele>
        <time>2017-06-26T07:03:44Z</time>
      </trkpt>
      <trkpt lat="43.96107" lon="2.51493">
        <ele>358</ele>
        <time>2017-06-26T07:03:46Z</time>
      </trkpt>
      <trkpt lat="43.96104" lon="2.51485">
        <ele>358</ele>
        <time>2017-06-26T07:03:48Z</time>
      </trkpt>
      <trkpt lat="43.96103" lon="2.51477">
        <ele>358</ele>
        <time>2017-06-26T07:03:50Z</time>
      </trkpt>
      <trkpt lat="43.96101" lon="2.5147">
        <ele>357</ele>
        <time>2017-06-26T07:03:52Z</time>
      </trkpt>
      <trkpt lat="43.96099" lon="2.51463">
        <ele>357</ele>
        <time>2017-06-26T07:03:54Z</time>
      </trkpt>
      <trkpt lat="43.96095" lon="2.51455">
        <ele>356</ele>
        <time>2017-06-26T07:03:56Z</time>
      </trkpt>
      <trkpt lat="43.96093" lon="2.51445">
        <ele>356</ele>
        <time>2017-06-26T07:03:58Z</time>
      </trkpt>
      <trkpt lat="43.96092" lon="2.51436">
        <ele>356</ele>
        <time>2017-06-26T07:04:00Z</time>
      </trkpt>
      <trkpt lat="43.96091" lon="2.51426">
        <ele>357</ele>
        <time>2017-06-26T07:04:02Z</time>
      </trkpt>
      <trkpt lat="43.9609" lon="2.51417">
        <ele>357</ele>
        <time>2017-06-26T07:04:04Z</time>
      </trkpt>
      <trkpt lat="43.96089" lon="2.51407">
        <ele>358</ele>
        <time>2017-06-26T07:04:06Z</time>
      </trkpt>
      <trkpt lat="43.9609" lon="2.51396">
        <ele>359</ele>
        <time>2017-06-26T07:04:08Z</time>
      </trkpt>
      <trkpt lat="43.9609" lon="2.51387">
        <ele>357</ele>
        <time>2017-06-26T07:04:10Z</time>
      </trkpt>
      <trkpt lat="43.9609" lon="2.51377">
        <ele>357</ele>
        <time>2017-06-26T07:04:12Z</time>
      </trkpt>
      <trkpt lat="43.96089" lon="2.51369">
        <ele>356</ele>
        <time>2017-06-26T07:04:14Z</time>
      </trkpt>
      <trkpt lat="43.96087" lon="2.51362">
        <ele>356</ele>
        <time>2017-06-26T07:04:16Z</time>
      </trkpt>
      <trkpt lat="43.96085" lon="2.51356">
        <ele>356</ele>
        <time>2017-06-26T07:04:18Z</time>
      </trkpt>
      <trkpt lat="43.96084" lon="2.51349">
        <ele>358</ele>
        <time>2017-06-26T07:04:20Z</time>
      </trkpt>
      <trkpt lat="43.96082" lon="2.51341">
        <ele>358</ele>
        <time>2017-06-26T07:04:22Z</time>
      </trkpt>
      <trkpt lat="43.9608" lon="2.51334">
        <ele>358</ele>
        <time>2017-06-26T07:04:24Z</time>
      </trkpt>
      <trkpt lat="43.96077" lon="2.51325">
        <ele>358</ele>
        <time>2017-06-26T07:04:26Z</time>
      </trkpt>
      <trkpt lat="43.96075" lon="2.51317">
        <ele>357</ele>
        <time>2017-06-26T07:04:28Z</time>
      </trkpt>
      <trkpt lat="43.96071" lon="2.51312">
        <ele>356</ele>
        <time>2017-06-26T07:04:30Z</time>
      </trkpt>
      <trkpt lat="43.96064" lon="2.51308">
        <ele>355</ele>
        <time>2017-06-26T07:04:32Z</time>
      </trkpt>
      <trkpt lat="43.96059" lon="2.51306">
        <ele>354</ele>
        <time>2017-06-26T07:04:34Z</time>
      </trkpt>
      <trkpt lat="43.96053" lon="2.51304">
        <ele>353</ele>
        <time>2017-06-26T07:04:36Z</time>
      </trkpt>
      <trkpt lat="43.96048" lon="2.51301">
        <ele>352</ele>
        <time>2017-06-26T07:04:38Z</time>
      </trkpt>
      <trkpt lat="43.96043" lon="2.51298">
        <ele>351</ele>
        <time>2017-06-26T07:04:40Z</time>
      </trkpt>
      <trkpt lat="43.96038" lon="2.51293">
        <ele>352</ele>
        <time>2017-06-26T07:04:42Z</time>
      </trkpt>
      <trkpt lat="43.96035" lon="2.51286">
        <ele>352</ele>
        <time>2017-06-26T07:04:44Z</time>
      </trkpt>
      <trkpt lat="43.96032" lon="2.51279">
        <ele>352</ele>
        <time>2017-06-26T07:04:46Z</time>
      </trkpt>
      <trkpt lat="43.9603" lon="2.51271">
        <ele>352</ele>
        <time>2017-06-26T07:04:48Z</time>
      </trkpt>
      <trkpt lat="43.96027" lon="2.51263">
        <ele>352</ele>
        <time>2017-06-26T07:04:50Z</time>
      </trkpt>
      <trkpt lat="43.96024" lon="2.51255">
        <ele>353</ele>
        <time>2017-06-26T07:04:52Z</time>
      </trkpt>
      <trkpt lat="43.96021" lon="2.51247">
        <ele>354</ele>
        <time>2017-06-26T07:04:54Z</time>
      </trkpt>
      <trkpt lat="43.96019" lon="2.5124">
        <ele>354</ele>
        <time>2017-06-26T07:04:56Z</time>
      </trkpt>
      <trkpt lat="43.96016" lon="2.51232">
        <ele>354</ele>
        <time>2017-06-26T07:04:58Z</time>
      </trkpt>
      <trkpt lat="43.96013" lon="2.51224">
        <ele>354</ele>
        <time>2017-06-26T07:05:00Z</time>
      </trkpt>
      <trkpt lat="43.96011" lon="2.51217">
        <ele>353</ele>
        <time>2017-06-26T07:05:02Z</time>
      </trkpt>
      <trkpt lat="43.96008" lon="2.51209">
        <ele>353</ele>
        <time>2017-06-26T07:05:04Z</time>
      </trkpt>
      <trkpt lat="43.96007" lon="2.51201">
        <ele>353</ele>
        <time>2017-06-26T07:05:06Z</time>
      </trkpt>
      <trkpt lat="43.96005" lon="2.51193">
        <ele>353</ele>
        <time>2017-06-26T07:05:08Z</time>
      </trkpt>
      <trkpt lat="43.96005" lon="2.51184">
        <ele>353</ele>
        <time>2017-06-26T07:05:10Z</time>
      </trkpt>
      <trkpt lat="43.96004" lon="2.51175">
        <ele>354</ele>
        <time>2017-06-26T07:05:12Z</time>
      </trkpt>
      <trkpt lat="43.96001" lon="2.51166">
        <ele>354</ele>
        <time>2017-06-26T07:05:14Z</time>
      </trkpt>
      <trkpt lat="43.95999" lon="2.51157">
        <ele>355</ele>
        <time>2017-06-26T07:05:16Z</time>
      </trkpt>
      <trkpt lat="43.95997" lon="2.51148">
        <ele>355</ele>
        <time>2017-06-26T07:05:18Z</time>
      </trkpt>
      <trkpt lat="43.95996" lon="2.51141">
        <ele>355</ele>
        <time>2017-06-26T07:05:20Z</time>
      </trkpt>
      <trkpt lat="43.95994" lon="2.51134">
        <ele>355</ele>
        <time>2017-06-26T07:05:22Z</time>
      </trkpt>
      <trkpt lat="43.95992" lon="2.51126">
        <ele>355</ele>
        <time>2017-06-26T07:05:24Z</time>
      </trkpt>
      <trkpt lat="43.95991" lon="2.51117">
        <ele>355</ele>
        <time>2017-06-26T07:05:26Z</time>
      </trkpt>
      <trkpt lat="43.95989" lon="2.51108">
        <ele>353</ele>
        <time>2017-06-26T07:05:28Z</time>
      </trkpt>
      <trkpt lat="43.95986" lon="2.51099">
        <ele>352</ele>
        <time>2017-06-26T07:05:30Z</time>
      </trkpt>
      <trkpt lat="43.95983" lon="2.51091">
        <ele>351</ele>
        <time>2017-06-26T07:05:32Z</time>
      </trkpt>
      <trkpt lat="43.9598" lon="2.51083">
        <ele>351</ele>
        <time>2017-06-26T07:05:34Z</time>
      </trkpt>
      <trkpt lat="43.95976" lon="2.51078">
        <ele>350</ele>
        <time>2017-06-26T07:05:36Z</time>
      </trkpt>
      <trkpt lat="43.95973" lon="2.51071">
        <ele>351</ele>
        <time>2017-06-26T07:05:38Z</time>
      </trkpt>
      <trkpt lat="43.95971" lon="2.51064">
        <ele>351</ele>
        <time>2017-06-26T07:05:40Z</time>
      </trkpt>
      <trkpt lat="43.95969" lon="2.51057">
        <ele>350</ele>
        <time>2017-06-26T07:05:42Z</time>
      </trkpt>
      <trkpt lat="43.95968" lon="2.5105">
        <ele>349</ele>
        <time>2017-06-26T07:05:44Z</time>
      </trkpt>
      <trkpt lat="43.95968" lon="2.51041">
        <ele>349</ele>
        <time>2017-06-26T07:05:46Z</time>
      </trkpt>
      <trkpt lat="43.95964" lon="2.51032">
        <ele>348</ele>
        <time>2017-06-26T07:05:48Z</time>
      </trkpt>
      <trkpt lat="43.95963" lon="2.51022">
        <ele>348</ele>
        <time>2017-06-26T07:05:50Z</time>
      </trkpt>
      <trkpt lat="43.95962" lon="2.51013">
        <ele>348</ele>
        <time>2017-06-26T07:05:52Z</time>
      </trkpt>
      <trkpt lat="43.9596" lon="2.51005">
        <ele>348</ele>
        <time>2017-06-26T07:05:54Z</time>
      </trkpt>
      <trkpt lat="43.95958" lon="2.50998">
        <ele>347</ele>
        <time>2017-06-26T07:05:56Z</time>
      </trkpt>
      <trkpt lat="43.95955" lon="2.50991">
        <ele>348</ele>
        <time>2017-06-26T07:05:58Z</time>
      </trkpt>
      <trkpt lat="43.95952" lon="2.50983">
        <ele>348</ele>
        <time>2017-06-26T07:06:00Z</time>
      </trkpt>
      <trkpt lat="43.95949" lon="2.50977">
        <ele>348</ele>
        <time>2017-06-26T07:06:02Z</time>
      </trkpt>
      <trkpt lat="43.95948" lon="2.5097">
        <ele>347</ele>
        <time>2017-06-26T07:06:04Z</time>
      </trkpt>
      <trkpt lat="43.95948" lon="2.50962">
        <ele>346</ele>
        <time>2017-06-26T07:06:06Z</time>
      </trkpt>
      <trkpt lat="43.95948" lon="2.50953">
        <ele>345</ele>
        <time>2017-06-26T07:06:08Z</time>
      </trkpt>
      <trkpt lat="43.95946" lon="2.50945">
        <ele>344</ele>
        <time>2017-06-26T07:06:10Z</time>
      </trkpt>
      <trkpt lat="43.95943" lon="2.50937">
        <ele>343</ele>
        <time>2017-06-26T07:06:12Z</time>
      </trkpt>
      <trkpt lat="43.95941" lon="2.50928">
        <ele>342</ele>
        <time>2017-06-26T07:06:14Z</time>
      </trkpt>
      <trkpt lat="43.9594" lon="2.50919">
        <ele>342</ele>
        <time>2017-06-26T07:06:16Z</time>
      </trkpt>
      <trkpt lat="43.95939" lon="2.50911">
        <ele>342</ele>
        <time>2017-06-26T07:06:18Z</time>
      </trkpt>
      <trkpt lat="43.95937" lon="2.50902">
        <ele>342</ele>
        <time>2017-06-26T07:06:20Z</time>
      </trkpt>
      <trkpt lat="43.95934" lon="2.50893">
        <ele>343</ele>
        <time>2017-06-26T07:06:22Z</time>
      </trkpt>
      <trkpt lat="43.95931" lon="2.50886">
        <ele>343</ele>
        <time>2017-06-26T07:06:24Z</time>
      </trkpt>
      <trkpt lat="43.95928" lon="2.5088">
        <ele>343</ele>
        <time>2017-06-26T07:06:26Z</time>
      </trkpt>
      <trkpt lat="43.95925" lon="2.50873">
        <ele>343</ele>
        <time>2017-06-26T07:06:28Z</time>
      </trkpt>
      <trkpt lat="43.95923" lon="2.50865">
        <ele>342</ele>
        <time>2017-06-26T07:06:30Z</time>
      </trkpt>
      <trkpt lat="43.95917" lon="2.50858">
        <ele>342</ele>
        <time>2017-06-26T07:06:32Z</time>
      </trkpt>
      <trkpt lat="43.95912" lon="2.50852">
        <ele>342</ele>
        <time>2017-06-26T07:06:34Z</time>
      </trkpt>
      <trkpt lat="43.95909" lon="2.50845">
        <ele>343</ele>
        <time>2017-06-26T07:06:36Z</time>
      </trkpt>
      <trkpt lat="43.95905" lon="2.50839">
        <ele>343</ele>
        <time>2017-06-26T07:06:38Z</time>
      </trkpt>
      <trkpt lat="43.95901" lon="2.50833">
        <ele>343</ele>
        <time>2017-06-26T07:06:40Z</time>
      </trkpt>
      <trkpt lat="43.95898" lon="2.50828">
        <ele>343</ele>
        <time>2017-06-26T07:06:42Z</time>
      </trkpt>
      <trkpt lat="43.95896" lon="2.50822">
        <ele>343</ele>
        <time>2017-06-26T07:06:44Z</time>
      </trkpt>
      <trkpt lat="43.95894" lon="2.50813">
        <ele>342</ele>
        <time>2017-06-26T07:06:46Z</time>
      </trkpt>
      <trkpt lat="43.95892" lon="2.50803">
        <ele>341</ele>
        <time>2017-06-26T07:06:48Z</time>
      </trkpt>
      <trkpt lat="43.9589" lon="2.50794">
        <ele>340</ele>
        <time>2017-06-26T07:06:50Z</time>
      </trkpt>
      <trkpt lat="43.95889" lon="2.50785">
        <ele>340</ele>
        <time>2017-06-26T07:06:52Z</time>
      </trkpt>
      <trkpt lat="43.95888" lon="2.50775">
        <ele>341</ele>
        <time>2017-06-26T07:06:54Z</time>
      </trkpt>
      <trkpt lat="43.95889" lon="2.50767">
        <ele>341</ele>
        <time>2017-06-26T07:06:56Z</time>
      </trkpt>
      <trkpt lat="43.9589" lon="2.50758">
        <ele>341</ele>
        <time>2017-06-26T07:06:58Z</time>
      </trkpt>
      <trkpt lat="43.95892" lon="2.50748">
        <ele>341</ele>
        <time>2017-06-26T07:07:00Z</time>
      </trkpt>
      <trkpt lat="43.95894" lon="2.50739">
        <ele>340</ele>
        <time>2017-06-26T07:07:02Z</time>
      </trkpt>
      <trkpt lat="43.95897" lon="2.50731">
        <ele>338</ele>
        <time>2017-06-26T07:07:04Z</time>
      </trkpt>
      <trkpt lat="43.95899" lon="2.50721">
        <ele>338</ele>
        <time>2017-06-26T07:07:06Z</time>
      </trkpt>
      <trkpt lat="43.959" lon="2.50713">
        <ele>337</ele>
        <time>2017-06-26T07:07:08Z</time>
      </trkpt>
      <trkpt lat="43.95901" lon="2.50705">
        <ele>337</ele>
        <time>2017-06-26T07:07:10Z</time>
      </trkpt>
      <trkpt lat="43.95903" lon="2.50697">
        <ele>337</ele>
        <time>2017-06-26T07:07:12Z</time>
      </trkpt>
      <trkpt lat="43.95905" lon="2.5069">
        <ele>337</ele>
        <time>2017-06-26T07:07:14Z</time>
      </trkpt>
      <trkpt lat="43.95909" lon="2.50683">
        <ele>337</ele>
        <time>2017-06-26T07:07:16Z</time>
      </trkpt>
      <trkpt lat="43.95913" lon="2.50676">
        <ele>337</ele>
        <time>2017-06-26T07:07:18Z</time>
      </trkpt>
      <trkpt lat="43.95915" lon="2.5067">
        <ele>337</ele>
        <time>2017-06-26T07:07:20Z</time>
      </trkpt>
      <trkpt lat="43.95917" lon="2.50664">
        <ele>336</ele>
        <time>2017-06-26T07:07:22Z</time>
      </trkpt>
      <trkpt lat="43.95917" lon="2.50657">
        <ele>336</ele>
        <time>2017-06-26T07:07:24Z</time>
      </trkpt>
      <trkpt lat="43.95913" lon="2.5065">
        <ele>336</ele>
        <time>2017-06-26T07:07:26Z</time>
      </trkpt>
      <trkpt lat="43.95909" lon="2.50645">
        <ele>336</ele>
        <time>2017-06-26T07:07:28Z</time>
      </trkpt>
      <trkpt lat="43.95904" lon="2.50642">
        <ele>336</ele>
        <time>2017-06-26T07:07:30Z</time>
      </trkpt>
      <trkpt lat="43.95898" lon="2.50641">
        <ele>335</ele>
        <time>2017-06-26T07:07:32Z</time>
      </trkpt>
      <trkpt lat="43.95891" lon="2.50638">
        <ele>335</ele>
        <time>2017-06-26T07:07:34Z</time>
      </trkpt>
      <trkpt lat="43.95885" lon="2.50634">
        <ele>335</ele>
        <time>2017-06-26T07:07:36Z</time>
      </trkpt>
      <trkpt lat="43.95881" lon="2.5063">
        <ele>335</ele>
        <time>2017-06-26T07:07:38Z</time>
      </trkpt>
      <trkpt lat="43.95878" lon="2.50625">
        <ele>335</ele>
        <time>2017-06-26T07:07:40Z</time>
      </trkpt>
      <trkpt lat="43.95873" lon="2.50619">
        <ele>335</ele>
        <time>2017-06-26T07:07:42Z</time>
      </trkpt>
      <trkpt lat="43.95868" lon="2.50615">
        <ele>335</ele>
        <time>2017-06-26T07:07:44Z</time>
      </trkpt>
      <trkpt lat="43.95862" lon="2.50612">
        <ele>335</ele>
        <time>2017-06-26T07:07:46Z</time>
      </trkpt>
      <trkpt lat="43.95856" lon="2.50611">
        <ele>334</ele>
        <time>2017-06-26T07:07:48Z</time>
      </trkpt>
      <trkpt lat="43.95851" lon="2.50611">
        <ele>333</ele>
        <time>2017-06-26T07:07:50Z</time>
      </trkpt>
      <trkpt lat="43.95845" lon="2.50609">
        <ele>331</ele>
        <time>2017-06-26T07:07:52Z</time>
      </trkpt>
      <trkpt lat="43.95839" lon="2.50606">
        <ele>329</ele>
        <time>2017-06-26T07:07:54Z</time>
      </trkpt>
      <trkpt lat="43.95832" lon="2.50601">
        <ele>328</ele>
        <time>2017-06-26T07:07:56Z</time>
      </trkpt>
      <trkpt lat="43.95826" lon="2.50597">
        <ele>326</ele>
        <time>2017-06-26T07:07:58Z</time>
      </trkpt>
      <trkpt lat="43.95822" lon="2.50591">
        <ele>324</ele>
        <time>2017-06-26T07:08:00Z</time>
      </trkpt>
      <trkpt lat="43.95819" lon="2.50584">
        <ele>323</ele>
        <time>2017-06-26T07:08:02Z</time>
      </trkpt>
      <trkpt lat="43.95815" lon="2.5058">
        <ele>321</ele>
        <time>2017-06-26T07:08:04Z</time>
      </trkpt>
      <trkpt lat="43.95811" lon="2.50575">
        <ele>320</ele>
        <time>2017-06-26T07:08:06Z</time>
      </trkpt>
      <trkpt lat="43.95806" lon="2.50571">
        <ele>319</ele>
        <time>2017-06-26T07:08:08Z</time>
      </trkpt>
      <trkpt lat="43.95801" lon="2.50567">
        <ele>319</ele>
        <time>2017-06-26T07:08:10Z</time>
      </trkpt>
      <trkpt lat="43.95796" lon="2.50562">
        <ele>318</ele>
        <time>2017-06-26T07:08:12Z</time>
      </trkpt>
      <trkpt lat="43.95792" lon="2.50555">
        <ele>317</ele>
        <time>2017-06-26T07:08:14Z</time>
      </trkpt>
      <trkpt lat="43.95789" lon="2.50549">
        <ele>318</ele>
        <time>2017-06-26T07:08:16Z</time>
      </trkpt>
      <trkpt lat="43.95785" lon="2.50543">
        <ele>319</ele>
        <time>2017-06-26T07:08:18Z</time>
      </trkpt>
      <trkpt lat="43.95782" lon="2.50538">
        <ele>319</ele>
        <time>2017-06-26T07:08:20Z</time>
      </trkpt>
      <trkpt lat="43.95779" lon="2.5053">
        <ele>319</ele>
        <time>2017-06-26T07:08:22Z</time>
      </trkpt>
      <trkpt lat="43.95776" lon="2.50521">
        <ele>320</ele>
        <time>2017-06-26T07:08:24Z</time>
      </trkpt>
      <trkpt lat="43.95775" lon="2.5051">
        <ele>319</ele>
        <time>2017-06-26T07:08:26Z</time>
      </trkpt>
      <trkpt lat="43.95771" lon="2.50501">
        <ele>319</ele>
        <time>2017-06-26T07:08:28Z</time>
      </trkpt>
      <trkpt lat="43.95766" lon="2.50494">
        <ele>320</ele>
        <time>2017-06-26T07:08:30Z</time>
      </trkpt>
      <trkpt lat="43.95763" lon="2.50486">
        <ele>319</ele>
        <time>2017-06-26T07:08:32Z</time>
      </trkpt>
      <trkpt lat="43.95757" lon="2.5048">
        <ele>319</ele>
        <time>2017-06-26T07:08:35Z</time>
      </trkpt>
      <trkpt lat="43.95754" lon="2.50474">
        <ele>318</ele>
        <time>2017-06-26T07:08:37Z</time>
      </trkpt>
      <trkpt lat="43.95753" lon="2.50468">
        <ele>317</ele>
        <time>2017-06-26T07:08:39Z</time>
      </trkpt>
      <trkpt lat="43.95752" lon="2.50459">
        <ele>316</ele>
        <time>2017-06-26T07:08:41Z</time>
      </trkpt>
      <trkpt lat="43.9575" lon="2.50449">
        <ele>316</ele>
        <time>2017-06-26T07:08:43Z</time>
      </trkpt>
      <trkpt lat="43.95747" lon="2.50441">
        <ele>316</ele>
        <time>2017-06-26T07:08:45Z</time>
      </trkpt>
      <trkpt lat="43.95745" lon="2.50434">
        <ele>316</ele>
        <time>2017-06-26T07:08:47Z</time>
      </trkpt>
      <trkpt lat="43.95741" lon="2.50427">
        <ele>316</ele>
        <time>2017-06-26T07:08:49Z</time>
      </trkpt>
      <trkpt lat="43.95738" lon="2.50421">
        <ele>316</ele>
        <time>2017-06-26T07:08:51Z</time>
      </trkpt>
      <trkpt lat="43.95733" lon="2.50416">
        <ele>315</ele>
        <time>2017-06-26T07:08:53Z</time>
      </trkpt>
      <trkpt lat="43.95728" lon="2.50409">
        <ele>315</ele>
        <time>2017-06-26T07:08:55Z</time>
      </trkpt>
      <trkpt lat="43.95722" lon="2.50404">
        <ele>315</ele>
        <time>2017-06-26T07:08:57Z</time>
      </trkpt>
      <trkpt lat="43.95716" lon="2.50398">
        <ele>315</ele>
        <time>2017-06-26T07:08:59Z</time>
      </trkpt>
      <trkpt lat="43.95713" lon="2.50392">
        <ele>314</ele>
        <time>2017-06-26T07:09:01Z</time>
      </trkpt>
      <trkpt lat="43.95708" lon="2.50388">
        <ele>313</ele>
        <time>2017-06-26T07:09:03Z</time>
      </trkpt>
      <trkpt lat="43.95703" lon="2.50384">
        <ele>312</ele>
        <time>2017-06-26T07:09:05Z</time>
      </trkpt>
      <trkpt lat="43.95699" lon="2.50378">
        <ele>312</ele>
        <time>2017-06-26T07:09:07Z</time>
      </trkpt>
      <trkpt lat="43.95697" lon="2.5037">
        <ele>312</ele>
        <time>2017-06-26T07:09:09Z</time>
      </trkpt>
      <trkpt lat="43.95694" lon="2.50363">
        <ele>312</ele>
        <time>2017-06-26T07:09:11Z</time>
      </trkpt>
      <trkpt lat="43.95691" lon="2.50355">
        <ele>312</ele>
        <time>2017-06-26T07:09:13Z</time>
      </trkpt>
      <trkpt lat="43.95689" lon="2.50348">
        <ele>311</ele>
        <time>2017-06-26T07:09:15Z</time>
      </trkpt>
      <trkpt lat="43.95687" lon="2.50341">
        <ele>310</ele>
        <time>2017-06-26T07:09:17Z</time>
      </trkpt>
      <trkpt lat="43.95684" lon="2.50334">
        <ele>308</ele>
        <time>2017-06-26T07:09:20Z</time>
      </trkpt>
      <trkpt lat="43.95681" lon="2.50328">
        <ele>307</ele>
        <time>2017-06-26T07:09:24Z</time>
      </trkpt>
      <trkpt lat="43.95677" lon="2.5032">
        <ele>307</ele>
        <time>2017-06-26T07:09:29Z</time>
      </trkpt>
      <trkpt lat="43.95675" lon="2.50313">
        <ele>306</ele>
        <time>2017-06-26T07:09:33Z</time>
      </trkpt>
      <trkpt lat="43.95672" lon="2.50307">
        <ele>306</ele>
        <time>2017-06-26T07:09:37Z</time>
      </trkpt>
      <trkpt lat="43.95669" lon="2.503">
        <ele>305</ele>
        <time>2017-06-26T07:09:40Z</time>
      </trkpt>
      <trkpt lat="43.95668" lon="2.50293">
        <ele>304</ele>
        <time>2017-06-26T07:09:44Z</time>
      </trkpt>
      <trkpt lat="43.95669" lon="2.50286">
        <ele>303</ele>
        <time>2017-06-26T07:09:56Z</time>
      </trkpt>
      <trkpt lat="43.9567" lon="2.5028">
        <ele>302</ele>
        <time>2017-06-26T07:10:01Z</time>
      </trkpt>
      <trkpt lat="43.95668" lon="2.50286">
        <ele>301</ele>
        <time>2017-06-26T07:10:09Z</time>
      </trkpt>
      <trkpt lat="43.95663" lon="2.50288">
        <ele>300</ele>
        <time>2017-06-26T07:10:12Z</time>
      </trkpt>
      <trkpt lat="43.95659" lon="2.50284">
        <ele>299</ele>
        <time>2017-06-26T07:10:15Z</time>
      </trkpt>
      <trkpt lat="43.95655" lon="2.50279">
        <ele>298</ele>
        <time>2017-06-26T07:10:17Z</time>
      </trkpt>
      <trkpt lat="43.95652" lon="2.50272">
        <ele>297</ele>
        <time>2017-06-26T07:10:19Z</time>
      </trkpt>
      <trkpt lat="43.95649" lon="2.50265">
        <ele>297</ele>
        <time>2017-06-26T07:10:21Z</time>
      </trkpt>
      <trkpt lat="43.95644" lon="2.50257">
        <ele>298</ele>
        <time>2017-06-26T07:10:23Z</time>
      </trkpt>
      <trkpt lat="43.95641" lon="2.50251">
        <ele>298</ele>
        <time>2017-06-26T07:10:25Z</time>
      </trkpt>
      <trkpt lat="43.95639" lon="2.50243">
        <ele>298</ele>
        <time>2017-06-26T07:10:28Z</time>
      </trkpt>
      <trkpt lat="43.95638" lon="2.50237">
        <ele>297</ele>
        <time>2017-06-26T07:10:30Z</time>
      </trkpt>
      <trkpt lat="43.95637" lon="2.5023">
        <ele>297</ele>
        <time>2017-06-26T07:10:32Z</time>
      </trkpt>
      <trkpt lat="43.95638" lon="2.50222">
        <ele>297</ele>
        <time>2017-06-26T07:10:34Z</time>
      </trkpt>
      <trkpt lat="43.9564" lon="2.50214">
        <ele>297</ele>
        <time>2017-06-26T07:10:36Z</time>
      </trkpt>
      <trkpt lat="43.95642" lon="2.50207">
        <ele>297</ele>
        <time>2017-06-26T07:10:38Z</time>
      </trkpt>
      <trkpt lat="43.95643" lon="2.502">
        <ele>296</ele>
        <time>2017-06-26T07:10:40Z</time>
      </trkpt>
      <trkpt lat="43.95646" lon="2.50193">
        <ele>299</ele>
        <time>2017-06-26T07:10:42Z</time>
      </trkpt>
      <trkpt lat="43.95647" lon="2.50183">
        <ele>300</ele>
        <time>2017-06-26T07:10:44Z</time>
      </trkpt>
      <trkpt lat="43.95647" lon="2.50173">
        <ele>300</ele>
        <time>2017-06-26T07:10:46Z</time>
      </trkpt>
      <trkpt lat="43.95646" lon="2.50165">
        <ele>299</ele>
        <time>2017-06-26T07:10:48Z</time>
      </trkpt>
      <trkpt lat="43.95642" lon="2.50158">
        <ele>298</ele>
        <time>2017-06-26T07:10:50Z</time>
      </trkpt>
      <trkpt lat="43.95637" lon="2.50154">
        <ele>297</ele>
        <time>2017-06-26T07:10:52Z</time>
      </trkpt>
      <trkpt lat="43.95632" lon="2.50154">
        <ele>297</ele>
        <time>2017-06-26T07:10:54Z</time>
      </trkpt>
      <trkpt lat="43.95626" lon="2.50155">
        <ele>298</ele>
        <time>2017-06-26T07:10:56Z</time>
      </trkpt>
      <trkpt lat="43.9562" lon="2.50155">
        <ele>299</ele>
        <time>2017-06-26T07:10:58Z</time>
      </trkpt>
      <trkpt lat="43.95614" lon="2.50156">
        <ele>300</ele>
        <time>2017-06-26T07:11:00Z</time>
      </trkpt>
      <trkpt lat="43.95607" lon="2.50155">
        <ele>301</ele>
        <time>2017-06-26T07:11:02Z</time>
      </trkpt>
      <trkpt lat="43.95601" lon="2.50153">
        <ele>300</ele>
        <time>2017-06-26T07:11:04Z</time>
      </trkpt>
      <trkpt lat="43.95594" lon="2.50149">
        <ele>299</ele>
        <time>2017-06-26T07:11:06Z</time>
      </trkpt>
      <trkpt lat="43.95589" lon="2.50146">
        <ele>299</ele>
        <time>2017-06-26T07:11:08Z</time>
      </trkpt>
      <trkpt lat="43.95583" lon="2.50141">
        <ele>298</ele>
        <time>2017-06-26T07:11:10Z</time>
      </trkpt>
      <trkpt lat="43.95577" lon="2.50138">
        <ele>295</ele>
        <time>2017-06-26T07:11:12Z</time>
      </trkpt>
      <trkpt lat="43.95571" lon="2.50138">
        <ele>293</ele>
        <time>2017-06-26T07:11:14Z</time>
      </trkpt>
      <trkpt lat="43.95566" lon="2.50137">
        <ele>293</ele>
        <time>2017-06-26T07:11:16Z</time>
      </trkpt>
      <trkpt lat="43.95561" lon="2.50135">
        <ele>292</ele>
        <time>2017-06-26T07:11:18Z</time>
      </trkpt>
      <trkpt lat="43.95556" lon="2.50132">
        <ele>292</ele>
        <time>2017-06-26T07:11:20Z</time>
      </trkpt>
      <trkpt lat="43.95551" lon="2.50129">
        <ele>295</ele>
        <time>2017-06-26T07:11:22Z</time>
      </trkpt>
      <trkpt lat="43.95546" lon="2.50126">
        <ele>296</ele>
        <time>2017-06-26T07:11:24Z</time>
      </trkpt>
      <trkpt lat="43.95542" lon="2.5012">
        <ele>297</ele>
        <time>2017-06-26T07:11:26Z</time>
      </trkpt>
      <trkpt lat="43.95539" lon="2.50115">
        <ele>298</ele>
        <time>2017-06-26T07:11:28Z</time>
      </trkpt>
      <trkpt lat="43.95535" lon="2.5011">
        <ele>298</ele>
        <time>2017-06-26T07:11:30Z</time>
      </trkpt>
      <trkpt lat="43.95532" lon="2.50104">
        <ele>297</ele>
        <time>2017-06-26T07:11:32Z</time>
      </trkpt>
      <trkpt lat="43.9553" lon="2.50095">
        <ele>296</ele>
        <time>2017-06-26T07:11:35Z</time>
      </trkpt>
      <trkpt lat="43.95527" lon="2.50088">
        <ele>296</ele>
        <time>2017-06-26T07:11:37Z</time>
      </trkpt>
      <trkpt lat="43.95522" lon="2.50082">
        <ele>296</ele>
        <time>2017-06-26T07:11:39Z</time>
      </trkpt>
      <trkpt lat="43.95517" lon="2.50078">
        <ele>297</ele>
        <time>2017-06-26T07:11:41Z</time>
      </trkpt>
      <trkpt lat="43.95512" lon="2.50073">
        <ele>295</ele>
        <time>2017-06-26T07:11:43Z</time>
      </trkpt>
      <trkpt lat="43.95507" lon="2.5007">
        <ele>295</ele>
        <time>2017-06-26T07:11:45Z</time>
      </trkpt>
      <trkpt lat="43.95503" lon="2.50067">
        <ele>295</ele>
        <time>2017-06-26T07:11:47Z</time>
      </trkpt>
      <trkpt lat="43.95497" lon="2.50064">
        <ele>296</ele>
        <time>2017-06-26T07:11:49Z</time>
      </trkpt>
      <trkpt lat="43.95491" lon="2.50061">
        <ele>296</ele>
        <time>2017-06-26T07:11:51Z</time>
      </trkpt>
      <trkpt lat="43.95486" lon="2.50058">
        <ele>296</ele>
        <time>2017-06-26T07:11:53Z</time>
      </trkpt>
      <trkpt lat="43.95481" lon="2.50054">
        <ele>297</ele>
        <time>2017-06-26T07:11:55Z</time>
      </trkpt>
      <trkpt lat="43.95477" lon="2.5005">
        <ele>297</ele>
        <time>2017-06-26T07:11:57Z</time>
      </trkpt>
      <trkpt lat="43.95473" lon="2.50045">
        <ele>298</ele>
        <time>2017-06-26T07:11:59Z</time>
      </trkpt>
      <trkpt lat="43.95469" lon="2.5004">
        <ele>298</ele>
        <time>2017-06-26T07:12:01Z</time>
      </trkpt>
      <trkpt lat="43.95464" lon="2.50035">
        <ele>298</ele>
        <time>2017-06-26T07:12:03Z</time>
      </trkpt>
      <trkpt lat="43.95461" lon="2.50031">
        <ele>299</ele>
        <time>2017-06-26T07:12:05Z</time>
      </trkpt>
      <trkpt lat="43.95457" lon="2.50025">
        <ele>299</ele>
        <time>2017-06-26T07:12:07Z</time>
      </trkpt>
      <trkpt lat="43.95454" lon="2.50021">
        <ele>299</ele>
        <time>2017-06-26T07:12:09Z</time>
      </trkpt>
      <trkpt lat="43.95451" lon="2.50016">
        <ele>299</ele>
        <time>2017-06-26T07:12:11Z</time>
      </trkpt>
      <trkpt lat="43.95451" lon="2.50007">
        <ele>299</ele>
        <time>2017-06-26T07:12:14Z</time>
      </trkpt>
      <trkpt lat="43.95451" lon="2.5">
        <ele>299</ele>
        <time>2017-06-26T07:12:16Z</time>
      </trkpt>
      <trkpt lat="43.95451" lon="2.49993">
        <ele>299</ele>
        <time>2017-06-26T07:12:18Z</time>
      </trkpt>
      <trkpt lat="43.9545" lon="2.49987">
        <ele>299</ele>
        <time>2017-06-26T07:12:20Z</time>
      </trkpt>
      <trkpt lat="43.95448" lon="2.49979">
        <ele>299</ele>
        <time>2017-06-26T07:12:23Z</time>
      </trkpt>
      <trkpt lat="43.95445" lon="2.49972">
        <ele>302</ele>
        <time>2017-06-26T07:12:25Z</time>
      </trkpt>
      <trkpt lat="43.95443" lon="2.49966">
        <ele>304</ele>
        <time>2017-06-26T07:12:27Z</time>
      </trkpt>
      <trkpt lat="43.9544" lon="2.49959">
        <ele>306</ele>
        <time>2017-06-26T07:12:30Z</time>
      </trkpt>
      <trkpt lat="43.95437" lon="2.49952">
        <ele>307</ele>
        <time>2017-06-26T07:12:33Z</time>
      </trkpt>
      <trkpt lat="43.95433" lon="2.49945">
        <ele>308</ele>
        <time>2017-06-26T07:12:36Z</time>
      </trkpt>
      <trkpt lat="43.95431" lon="2.49939">
        <ele>307</ele>
        <time>2017-06-26T07:12:38Z</time>
      </trkpt>
      <trkpt lat="43.95428" lon="2.49931">
        <ele>307</ele>
        <time>2017-06-26T07:12:41Z</time>
      </trkpt>
      <trkpt lat="43.95427" lon="2.49925">
        <ele>307</ele>
        <time>2017-06-26T07:12:43Z</time>
      </trkpt>
      <trkpt lat="43.95425" lon="2.49918">
        <ele>310</ele>
        <time>2017-06-26T07:12:45Z</time>
      </trkpt>
      <trkpt lat="43.95423" lon="2.49909">
        <ele>311</ele>
        <time>2017-06-26T07:12:48Z</time>
      </trkpt>
      <trkpt lat="43.95414" lon="2.4989">
        <ele>312</ele>
        <time>2017-06-26T07:12:54Z</time>
      </trkpt>
      <trkpt lat="43.95411" lon="2.49887">
        <ele>312</ele>
        <time>2017-06-26T07:12:56Z</time>
      </trkpt>
      <trkpt lat="43.95407" lon="2.49883">
        <ele>312</ele>
        <time>2017-06-26T07:12:58Z</time>
      </trkpt>
      <trkpt lat="43.95403" lon="2.49879">
        <ele>310</ele>
        <time>2017-06-26T07:13:00Z</time>
      </trkpt>
      <trkpt lat="43.95397" lon="2.49875">
        <ele>309</ele>
        <time>2017-06-26T07:13:03Z</time>
      </trkpt>
      <trkpt lat="43.95393" lon="2.49871">
        <ele>308</ele>
        <time>2017-06-26T07:13:05Z</time>
      </trkpt>
      <trkpt lat="43.95388" lon="2.49867">
        <ele>308</ele>
        <time>2017-06-26T07:13:07Z</time>
      </trkpt>
      <trkpt lat="43.95383" lon="2.49864">
        <ele>307</ele>
        <time>2017-06-26T07:13:09Z</time>
      </trkpt>
      <trkpt lat="43.95378" lon="2.49862">
        <ele>308</ele>
        <time>2017-06-26T07:13:11Z</time>
      </trkpt>
      <trkpt lat="43.95374" lon="2.49857">
        <ele>308</ele>
        <time>2017-06-26T07:13:13Z</time>
      </trkpt>
      <trkpt lat="43.9537" lon="2.49852">
        <ele>308</ele>
        <time>2017-06-26T07:13:15Z</time>
      </trkpt>
      <trkpt lat="43.95367" lon="2.49846">
        <ele>308</ele>
        <time>2017-06-26T07:13:17Z</time>
      </trkpt>
      <trkpt lat="43.95364" lon="2.49839">
        <ele>307</ele>
        <time>2017-06-26T07:13:19Z</time>
      </trkpt>
      <trkpt lat="43.95361" lon="2.49832">
        <ele>306</ele>
        <time>2017-06-26T07:13:21Z</time>
      </trkpt>
      <trkpt lat="43.95359" lon="2.49824">
        <ele>306</ele>
        <time>2017-06-26T07:13:24Z</time>
      </trkpt>
      <trkpt lat="43.95356" lon="2.49819">
        <ele>305</ele>
        <time>2017-06-26T07:13:26Z</time>
      </trkpt>
      <trkpt lat="43.95351" lon="2.49814">
        <ele>306</ele>
        <time>2017-06-26T07:13:28Z</time>
      </trkpt>
      <trkpt lat="43.95347" lon="2.4981">
        <ele>307</ele>
        <time>2017-06-26T07:13:30Z</time>
      </trkpt>
      <trkpt lat="43.95343" lon="2.49805">
        <ele>306</ele>
        <time>2017-06-26T07:13:32Z</time>
      </trkpt>
      <trkpt lat="43.95338" lon="2.498">
        <ele>306</ele>
        <time>2017-06-26T07:13:34Z</time>
      </trkpt>
      <trkpt lat="43.95335" lon="2.49794">
        <ele>306</ele>
        <time>2017-06-26T07:13:36Z</time>
      </trkpt>
      <trkpt lat="43.95332" lon="2.49788">
        <ele>305</ele>
        <time>2017-06-26T07:13:38Z</time>
      </trkpt>
      <trkpt lat="43.95328" lon="2.49783">
        <ele>305</ele>
        <time>2017-06-26T07:13:40Z</time>
      </trkpt>
      <trkpt lat="43.95324" lon="2.49779">
        <ele>305</ele>
        <time>2017-06-26T07:13:42Z</time>
      </trkpt>
      <trkpt lat="43.95319" lon="2.49774">
        <ele>305</ele>
        <time>2017-06-26T07:13:44Z</time>
      </trkpt>
      <trkpt lat="43.95316" lon="2.49769">
        <ele>305</ele>
        <time>2017-06-26T07:13:46Z</time>
      </trkpt>
      <trkpt lat="43.95312" lon="2.49764">
        <ele>303</ele>
        <time>2017-06-26T07:13:48Z</time>
      </trkpt>
      <trkpt lat="43.95308" lon="2.49759">
        <ele>303</ele>
        <time>2017-06-26T07:13:50Z</time>
      </trkpt>
      <trkpt lat="43.95305" lon="2.49755">
        <ele>302</ele>
        <time>2017-06-26T07:13:52Z</time>
      </trkpt>
      <trkpt lat="43.95301" lon="2.49749">
        <ele>302</ele>
        <time>2017-06-26T07:13:54Z</time>
      </trkpt>
      <trkpt lat="43.95296" lon="2.49744">
        <ele>301</ele>
        <time>2017-06-26T07:13:56Z</time>
      </trkpt>
      <trkpt lat="43.95292" lon="2.4974">
        <ele>301</ele>
        <time>2017-06-26T07:13:58Z</time>
      </trkpt>
      <trkpt lat="43.95288" lon="2.49735">
        <ele>301</ele>
        <time>2017-06-26T07:14:00Z</time>
      </trkpt>
      <trkpt lat="43.95284" lon="2.49731">
        <ele>300</ele>
        <time>2017-06-26T07:14:02Z</time>
      </trkpt>
      <trkpt lat="43.95277" lon="2.49728">
        <ele>300</ele>
        <time>2017-06-26T07:14:04Z</time>
      </trkpt>
      <trkpt lat="43.95272" lon="2.49727">
        <ele>300</ele>
        <time>2017-06-26T07:14:06Z</time>
      </trkpt>
      <trkpt lat="43.95266" lon="2.49726">
        <ele>300</ele>
        <time>2017-06-26T07:14:08Z</time>
      </trkpt>
      <trkpt lat="43.95259" lon="2.49725">
        <ele>300</ele>
        <time>2017-06-26T07:14:10Z</time>
      </trkpt>
      <trkpt lat="43.95255" lon="2.49723">
        <ele>300</ele>
        <time>2017-06-26T07:14:12Z</time>
      </trkpt>
      <trkpt lat="43.95248" lon="2.49722">
        <ele>299</ele>
        <time>2017-06-26T07:14:14Z</time>
      </trkpt>
      <trkpt lat="43.95242" lon="2.49721">
        <ele>299</ele>
        <time>2017-06-26T07:14:16Z</time>
      </trkpt>
      <trkpt lat="43.95235" lon="2.4972">
        <ele>298</ele>
        <time>2017-06-26T07:14:18Z</time>
      </trkpt>
      <trkpt lat="43.9523" lon="2.49718">
        <ele>298</ele>
        <time>2017-06-26T07:14:20Z</time>
      </trkpt>
      <trkpt lat="43.95225" lon="2.49713">
        <ele>297</ele>
        <time>2017-06-26T07:14:23Z</time>
      </trkpt>
      <trkpt lat="43.9522" lon="2.49708">
        <ele>295</ele>
        <time>2017-06-26T07:14:25Z</time>
      </trkpt>
      <trkpt lat="43.95216" lon="2.49704">
        <ele>294</ele>
        <time>2017-06-26T07:14:27Z</time>
      </trkpt>
      <trkpt lat="43.95213" lon="2.497">
        <ele>297</ele>
        <time>2017-06-26T07:14:29Z</time>
      </trkpt>
      <trkpt lat="43.95209" lon="2.49695">
        <ele>299</ele>
        <time>2017-06-26T07:14:31Z</time>
      </trkpt>
      <trkpt lat="43.95204" lon="2.49689">
        <ele>302</ele>
        <time>2017-06-26T07:14:33Z</time>
      </trkpt>
      <trkpt lat="43.952" lon="2.49682">
        <ele>305</ele>
        <time>2017-06-26T07:14:35Z</time>
      </trkpt>
      <trkpt lat="43.95198" lon="2.49676">
        <ele>308</ele>
        <time>2017-06-26T07:14:37Z</time>
      </trkpt>
      <trkpt lat="43.95194" lon="2.49669">
        <ele>307</ele>
        <time>2017-06-26T07:14:40Z</time>
      </trkpt>
      <trkpt lat="43.95191" lon="2.49665">
        <ele>307</ele>
        <time>2017-06-26T07:14:42Z</time>
      </trkpt>
      <trkpt lat="43.95184" lon="2.49658">
        <ele>307</ele>
        <time>2017-06-26T07:14:45Z</time>
      </trkpt>
      <trkpt lat="43.9518" lon="2.49656">
        <ele>307</ele>
        <time>2017-06-26T07:14:46Z</time>
      </trkpt>
      <trkpt lat="43.95174" lon="2.49654">
        <ele>308</ele>
        <time>2017-06-26T07:14:48Z</time>
      </trkpt>
      <trkpt lat="43.95168" lon="2.49652">
        <ele>306</ele>
        <time>2017-06-26T07:14:50Z</time>
      </trkpt>
      <trkpt lat="43.95163" lon="2.4965">
        <ele>305</ele>
        <time>2017-06-26T07:14:52Z</time>
      </trkpt>
      <trkpt lat="43.95158" lon="2.49649">
        <ele>304</ele>
        <time>2017-06-26T07:14:54Z</time>
      </trkpt>
      <trkpt lat="43.95152" lon="2.49648">
        <ele>303</ele>
        <time>2017-06-26T07:14:56Z</time>
      </trkpt>
      <trkpt lat="43.95147" lon="2.49648">
        <ele>302</ele>
        <time>2017-06-26T07:14:58Z</time>
      </trkpt>
      <trkpt lat="43.95141" lon="2.49647">
        <ele>301</ele>
        <time>2017-06-26T07:15:00Z</time>
      </trkpt>
      <trkpt lat="43.95136" lon="2.49646">
        <ele>301</ele>
        <time>2017-06-26T07:15:02Z</time>
      </trkpt>
      <trkpt lat="43.9513" lon="2.49644">
        <ele>301</ele>
        <time>2017-06-26T07:15:04Z</time>
      </trkpt>
      <trkpt lat="43.95125" lon="2.49643">
        <ele>300</ele>
        <time>2017-06-26T07:15:06Z</time>
      </trkpt>
      <trkpt lat="43.95118" lon="2.4964">
        <ele>301</ele>
        <time>2017-06-26T07:15:09Z</time>
      </trkpt>
      <trkpt lat="43.95113" lon="2.49638">
        <ele>300</ele>
        <time>2017-06-26T07:15:11Z</time>
      </trkpt>
      <trkpt lat="43.95109" lon="2.49634">
        <ele>300</ele>
        <time>2017-06-26T07:15:13Z</time>
      </trkpt>
      <trkpt lat="43.95102" lon="2.49631">
        <ele>299</ele>
        <time>2017-06-26T07:15:15Z</time>
      </trkpt>
      <trkpt lat="43.95097" lon="2.49631">
        <ele>298</ele>
        <time>2017-06-26T07:15:17Z</time>
      </trkpt>
      <trkpt lat="43.95091" lon="2.49626">
        <ele>297</ele>
        <time>2017-06-26T07:15:20Z</time>
      </trkpt>
      <trkpt lat="43.95086" lon="2.49625">
        <ele>297</ele>
        <time>2017-06-26T07:15:22Z</time>
      </trkpt>
      <trkpt lat="43.9508" lon="2.49623">
        <ele>297</ele>
        <time>2017-06-26T07:15:24Z</time>
      </trkpt>
      <trkpt lat="43.95074" lon="2.49621">
        <ele>297</ele>
        <time>2017-06-26T07:15:26Z</time>
      </trkpt>
      <trkpt lat="43.95069" lon="2.49619">
        <ele>296</ele>
        <time>2017-06-26T07:15:28Z</time>
      </trkpt>
      <trkpt lat="43.95063" lon="2.49618">
        <ele>296</ele>
        <time>2017-06-26T07:15:30Z</time>
      </trkpt>
      <trkpt lat="43.95059" lon="2.49617">
        <ele>296</ele>
        <time>2017-06-26T07:15:32Z</time>
      </trkpt>
      <trkpt lat="43.95054" lon="2.49616">
        <ele>296</ele>
        <time>2017-06-26T07:15:34Z</time>
      </trkpt>
      <trkpt lat="43.95048" lon="2.49614">
        <ele>296</ele>
        <time>2017-06-26T07:15:36Z</time>
      </trkpt>
      <trkpt lat="43.95042" lon="2.49613">
        <ele>296</ele>
        <time>2017-06-26T07:15:38Z</time>
      </trkpt>
      <trkpt lat="43.95036" lon="2.49614">
        <ele>296</ele>
        <time>2017-06-26T07:15:40Z</time>
      </trkpt>
      <trkpt lat="43.95032" lon="2.49614">
        <ele>295</ele>
        <time>2017-06-26T07:15:42Z</time>
      </trkpt>
      <trkpt lat="43.95025" lon="2.49614">
        <ele>295</ele>
        <time>2017-06-26T07:15:45Z</time>
      </trkpt>
      <trkpt lat="43.9502" lon="2.49617">
        <ele>294</ele>
        <time>2017-06-26T07:15:48Z</time>
      </trkpt>
      <trkpt lat="43.95013" lon="2.49618">
        <ele>295</ele>
        <time>2017-06-26T07:15:51Z</time>
      </trkpt>
      <trkpt lat="43.95008" lon="2.49618">
        <ele>295</ele>
        <time>2017-06-26T07:15:54Z</time>
      </trkpt>
      <trkpt lat="43.95002" lon="2.49619">
        <ele>294</ele>
        <time>2017-06-26T07:15:57Z</time>
      </trkpt>
      <trkpt lat="43.94997" lon="2.4962">
        <ele>293</ele>
        <time>2017-06-26T07:16:00Z</time>
      </trkpt>
      <trkpt lat="43.94992" lon="2.49622">
        <ele>293</ele>
        <time>2017-06-26T07:16:02Z</time>
      </trkpt>
      <trkpt lat="43.94986" lon="2.49624">
        <ele>292</ele>
        <time>2017-06-26T07:16:04Z</time>
      </trkpt>
      <trkpt lat="43.94981" lon="2.49626">
        <ele>293</ele>
        <time>2017-06-26T07:16:06Z</time>
      </trkpt>
      <trkpt lat="43.94975" lon="2.49627">
        <ele>293</ele>
        <time>2017-06-26T07:16:08Z</time>
      </trkpt>
      <trkpt lat="43.9497" lon="2.49628">
        <ele>295</ele>
        <time>2017-06-26T07:16:10Z</time>
      </trkpt>
      <trkpt lat="43.94964" lon="2.49631">
        <ele>295</ele>
        <time>2017-06-26T07:16:12Z</time>
      </trkpt>
      <trkpt lat="43.9496" lon="2.49633">
        <ele>294</ele>
        <time>2017-06-26T07:16:14Z</time>
      </trkpt>
      <trkpt lat="43.94954" lon="2.49635">
        <ele>293</ele>
        <time>2017-06-26T07:16:16Z</time>
      </trkpt>
      <trkpt lat="43.94949" lon="2.49636">
        <ele>292</ele>
        <time>2017-06-26T07:16:18Z</time>
      </trkpt>
      <trkpt lat="43.94944" lon="2.49638">
        <ele>291</ele>
        <time>2017-06-26T07:16:20Z</time>
      </trkpt>
      <trkpt lat="43.94939" lon="2.4964">
        <ele>290</ele>
        <time>2017-06-26T07:16:22Z</time>
      </trkpt>
      <trkpt lat="43.94934" lon="2.49641">
        <ele>290</ele>
        <time>2017-06-26T07:16:24Z</time>
      </trkpt>
      <trkpt lat="43.94928" lon="2.49643">
        <ele>289</ele>
        <time>2017-06-26T07:16:26Z</time>
      </trkpt>
      <trkpt lat="43.94922" lon="2.49644">
        <ele>289</ele>
        <time>2017-06-26T07:16:28Z</time>
      </trkpt>
      <trkpt lat="43.94916" lon="2.49646">
        <ele>288</ele>
        <time>2017-06-26T07:16:30Z</time>
      </trkpt>
      <trkpt lat="43.94912" lon="2.49648">
        <ele>287</ele>
        <time>2017-06-26T07:16:32Z</time>
      </trkpt>
      <trkpt lat="43.94907" lon="2.49648">
        <ele>286</ele>
        <time>2017-06-26T07:16:34Z</time>
      </trkpt>
      <trkpt lat="43.94902" lon="2.49649">
        <ele>285</ele>
        <time>2017-06-26T07:16:36Z</time>
      </trkpt>
      <trkpt lat="43.94896" lon="2.49648">
        <ele>285</ele>
        <time>2017-06-26T07:16:38Z</time>
      </trkpt>
      <trkpt lat="43.94891" lon="2.49648">
        <ele>285</ele>
        <time>2017-06-26T07:16:40Z</time>
      </trkpt>
      <trkpt lat="43.94886" lon="2.49647">
        <ele>286</ele>
        <time>2017-06-26T07:16:42Z</time>
      </trkpt>
      <trkpt lat="43.94881" lon="2.49647">
        <ele>286</ele>
        <time>2017-06-26T07:16:44Z</time>
      </trkpt>
      <trkpt lat="43.94876" lon="2.49646">
        <ele>287</ele>
        <time>2017-06-26T07:16:46Z</time>
      </trkpt>
      <trkpt lat="43.9487" lon="2.49644">
        <ele>287</ele>
        <time>2017-06-26T07:16:48Z</time>
      </trkpt>
      <trkpt lat="43.94865" lon="2.49644">
        <ele>288</ele>
        <time>2017-06-26T07:16:50Z</time>
      </trkpt>
      <trkpt lat="43.9486" lon="2.49643">
        <ele>288</ele>
        <time>2017-06-26T07:16:52Z</time>
      </trkpt>
      <trkpt lat="43.94855" lon="2.49642">
        <ele>288</ele>
        <time>2017-06-26T07:16:54Z</time>
      </trkpt>
      <trkpt lat="43.94849" lon="2.49641">
        <ele>288</ele>
        <time>2017-06-26T07:16:56Z</time>
      </trkpt>
      <trkpt lat="43.94844" lon="2.4964">
        <ele>288</ele>
        <time>2017-06-26T07:16:58Z</time>
      </trkpt>
      <trkpt lat="43.94839" lon="2.49639">
        <ele>288</ele>
        <time>2017-06-26T07:17:00Z</time>
      </trkpt>
      <trkpt lat="43.94834" lon="2.49637">
        <ele>288</ele>
        <time>2017-06-26T07:17:02Z</time>
      </trkpt>
      <trkpt lat="43.94828" lon="2.49636">
        <ele>288</ele>
        <time>2017-06-26T07:17:04Z</time>
      </trkpt>
      <trkpt lat="43.94823" lon="2.49635">
        <ele>288</ele>
        <time>2017-06-26T07:17:06Z</time>
      </trkpt>
      <trkpt lat="43.94817" lon="2.49632">
        <ele>288</ele>
        <time>2017-06-26T07:17:08Z</time>
      </trkpt>
      <trkpt lat="43.94812" lon="2.4963">
        <ele>289</ele>
        <time>2017-06-26T07:17:10Z</time>
      </trkpt>
      <trkpt lat="43.94806" lon="2.49628">
        <ele>290</ele>
        <time>2017-06-26T07:17:12Z</time>
      </trkpt>
      <trkpt lat="43.94801" lon="2.49627">
        <ele>291</ele>
        <time>2017-06-26T07:17:14Z</time>
      </trkpt>
      <trkpt lat="43.94796" lon="2.49622">
        <ele>292</ele>
        <time>2017-06-26T07:17:16Z</time>
      </trkpt>
      <trkpt lat="43.94793" lon="2.49618">
        <ele>292</ele>
        <time>2017-06-26T07:17:18Z</time>
      </trkpt>
      <trkpt lat="43.94791" lon="2.49611">
        <ele>292</ele>
        <time>2017-06-26T07:17:21Z</time>
      </trkpt>
      <trkpt lat="43.94789" lon="2.49604">
        <ele>292</ele>
        <time>2017-06-26T07:17:24Z</time>
      </trkpt>
      <trkpt lat="43.94787" lon="2.49597">
        <ele>292</ele>
        <time>2017-06-26T07:17:28Z</time>
      </trkpt>
      <trkpt lat="43.9479" lon="2.49589">
        <ele>292</ele>
        <time>2017-06-26T07:17:32Z</time>
      </trkpt>
      <trkpt lat="43.94794" lon="2.49585">
        <ele>293</ele>
        <time>2017-06-26T07:17:35Z</time>
      </trkpt>
      <trkpt lat="43.94799" lon="2.49584">
        <ele>293</ele>
        <time>2017-06-26T07:17:38Z</time>
      </trkpt>
      <trkpt lat="43.94804" lon="2.49583">
        <ele>293</ele>
        <time>2017-06-26T07:17:41Z</time>
      </trkpt>
      <trkpt lat="43.9481" lon="2.49581">
        <ele>293</ele>
        <time>2017-06-26T07:17:44Z</time>
      </trkpt>
      <trkpt lat="43.94814" lon="2.4958">
        <ele>294</ele>
        <time>2017-06-26T07:17:47Z</time>
      </trkpt>
      <trkpt lat="43.9482" lon="2.49578">
        <ele>295</ele>
        <time>2017-06-26T07:17:50Z</time>
      </trkpt>
      <trkpt lat="43.94827" lon="2.49577">
        <ele>296</ele>
        <time>2017-06-26T07:17:53Z</time>
      </trkpt>
      <trkpt lat="43.94833" lon="2.49575">
        <ele>298</ele>
        <time>2017-06-26T07:17:56Z</time>
      </trkpt>
      <trkpt lat="43.94838" lon="2.49573">
        <ele>299</ele>
        <time>2017-06-26T07:17:58Z</time>
      </trkpt>
      <trkpt lat="43.94843" lon="2.49571">
        <ele>299</ele>
        <time>2017-06-26T07:18:00Z</time>
      </trkpt>
      <trkpt lat="43.94849" lon="2.49566">
        <ele>300</ele>
        <time>2017-06-26T07:18:03Z</time>
      </trkpt>
      <trkpt lat="43.94851" lon="2.49561">
        <ele>300</ele>
        <time>2017-06-26T07:18:05Z</time>
      </trkpt>
      <trkpt lat="43.94852" lon="2.49555">
        <ele>301</ele>
        <time>2017-06-26T07:18:07Z</time>
      </trkpt>
      <trkpt lat="43.94851" lon="2.49548">
        <ele>302</ele>
        <time>2017-06-26T07:18:09Z</time>
      </trkpt>
      <trkpt lat="43.94849" lon="2.49541">
        <ele>303</ele>
        <time>2017-06-26T07:18:12Z</time>
      </trkpt>
      <trkpt lat="43.94844" lon="2.49535">
        <ele>304</ele>
        <time>2017-06-26T07:18:15Z</time>
      </trkpt>
      <trkpt lat="43.94841" lon="2.49529">
        <ele>305</ele>
        <time>2017-06-26T07:18:18Z</time>
      </trkpt>
      <trkpt lat="43.94837" lon="2.49523">
        <ele>305</ele>
        <time>2017-06-26T07:18:22Z</time>
      </trkpt>
      <trkpt lat="43.94835" lon="2.49518">
        <ele>306</ele>
        <time>2017-06-26T07:18:25Z</time>
      </trkpt>
      <trkpt lat="43.9483" lon="2.49513">
        <ele>306</ele>
        <time>2017-06-26T07:18:28Z</time>
      </trkpt>
      <trkpt lat="43.94826" lon="2.49508">
        <ele>306</ele>
        <time>2017-06-26T07:18:31Z</time>
      </trkpt>
      <trkpt lat="43.94824" lon="2.49502">
        <ele>306</ele>
        <time>2017-06-26T07:18:33Z</time>
      </trkpt>
      <trkpt lat="43.9482" lon="2.49499">
        <ele>307</ele>
        <time>2017-06-26T07:18:36Z</time>
      </trkpt>
      <trkpt lat="43.94815" lon="2.49492">
        <ele>308</ele>
        <time>2017-06-26T07:18:39Z</time>
      </trkpt>
      <trkpt lat="43.94813" lon="2.49484">
        <ele>309</ele>
        <time>2017-06-26T07:18:42Z</time>
      </trkpt>
      <trkpt lat="43.94811" lon="2.49478">
        <ele>311</ele>
        <time>2017-06-26T07:18:45Z</time>
      </trkpt>
      <trkpt lat="43.94808" lon="2.4947">
        <ele>312</ele>
        <time>2017-06-26T07:18:48Z</time>
      </trkpt>
      <trkpt lat="43.94806" lon="2.49464">
        <ele>314</ele>
        <time>2017-06-26T07:18:51Z</time>
      </trkpt>
      <trkpt lat="43.94805" lon="2.49457">
        <ele>315</ele>
        <time>2017-06-26T07:18:54Z</time>
      </trkpt>
      <trkpt lat="43.94805" lon="2.49449">
        <ele>316</ele>
        <time>2017-06-26T07:18:57Z</time>
      </trkpt>
      <trkpt lat="43.94805" lon="2.49442">
        <ele>316</ele>
        <time>2017-06-26T07:18:59Z</time>
      </trkpt>
      <trkpt lat="43.94804" lon="2.49435">
        <ele>317</ele>
        <time>2017-06-26T07:19:02Z</time>
      </trkpt>
      <trkpt lat="43.94805" lon="2.49429">
        <ele>318</ele>
        <time>2017-06-26T07:19:05Z</time>
      </trkpt>
      <trkpt lat="43.94807" lon="2.49422">
        <ele>318</ele>
        <time>2017-06-26T07:19:08Z</time>
      </trkpt>
      <trkpt lat="43.94807" lon="2.49414">
        <ele>319</ele>
        <time>2017-06-26T07:19:10Z</time>
      </trkpt>
      <trkpt lat="43.94804" lon="2.49408">
        <ele>320</ele>
        <time>2017-06-26T07:19:14Z</time>
      </trkpt>
      <trkpt lat="43.94803" lon="2.494">
        <ele>321</ele>
        <time>2017-06-26T07:19:17Z</time>
      </trkpt>
      <trkpt lat="43.94801" lon="2.49393">
        <ele>321</ele>
        <time>2017-06-26T07:19:20Z</time>
      </trkpt>
      <trkpt lat="43.94799" lon="2.49387">
        <ele>322</ele>
        <time>2017-06-26T07:19:24Z</time>
      </trkpt>
      <trkpt lat="43.94798" lon="2.49379">
        <ele>323</ele>
        <time>2017-06-26T07:19:28Z</time>
      </trkpt>
      <trkpt lat="43.94795" lon="2.49373">
        <ele>324</ele>
        <time>2017-06-26T07:19:33Z</time>
      </trkpt>
      <trkpt lat="43.94793" lon="2.49366">
        <ele>325</ele>
        <time>2017-06-26T07:19:36Z</time>
      </trkpt>
      <trkpt lat="43.94791" lon="2.49358">
        <ele>326</ele>
        <time>2017-06-26T07:19:39Z</time>
      </trkpt>
      <trkpt lat="43.9479" lon="2.49351">
        <ele>327</ele>
        <time>2017-06-26T07:19:42Z</time>
      </trkpt>
      <trkpt lat="43.94787" lon="2.49344">
        <ele>327</ele>
        <time>2017-06-26T07:19:45Z</time>
      </trkpt>
      <trkpt lat="43.94785" lon="2.49337">
        <ele>327</ele>
        <time>2017-06-26T07:19:47Z</time>
      </trkpt>
      <trkpt lat="43.94783" lon="2.4933">
        <ele>327</ele>
        <time>2017-06-26T07:19:50Z</time>
      </trkpt>
      <trkpt lat="43.94782" lon="2.49322">
        <ele>327</ele>
        <time>2017-06-26T07:19:53Z</time>
      </trkpt>
      <trkpt lat="43.94783" lon="2.49313">
        <ele>327</ele>
        <time>2017-06-26T07:19:56Z</time>
      </trkpt>
      <trkpt lat="43.94786" lon="2.49305">
        <ele>328</ele>
        <time>2017-06-26T07:19:59Z</time>
      </trkpt>
      <trkpt lat="43.94788" lon="2.493">
        <ele>329</ele>
        <time>2017-06-26T07:20:02Z</time>
      </trkpt>
      <trkpt lat="43.94793" lon="2.49296">
        <ele>330</ele>
        <time>2017-06-26T07:20:05Z</time>
      </trkpt>
      <trkpt lat="43.94797" lon="2.4929">
        <ele>331</ele>
        <time>2017-06-26T07:20:08Z</time>
      </trkpt>
      <trkpt lat="43.94802" lon="2.49287">
        <ele>333</ele>
        <time>2017-06-26T07:20:11Z</time>
      </trkpt>
      <trkpt lat="43.94806" lon="2.4929">
        <ele>334</ele>
        <time>2017-06-26T07:20:14Z</time>
      </trkpt>
      <trkpt lat="43.9481" lon="2.49295">
        <ele>335</ele>
        <time>2017-06-26T07:20:17Z</time>
      </trkpt>
      <trkpt lat="43.94815" lon="2.49301">
        <ele>336</ele>
        <time>2017-06-26T07:20:20Z</time>
      </trkpt>
      <trkpt lat="43.94818" lon="2.49305">
        <ele>336</ele>
        <time>2017-06-26T07:20:23Z</time>
      </trkpt>
      <trkpt lat="43.94823" lon="2.4931">
        <ele>335</ele>
        <time>2017-06-26T07:20:25Z</time>
      </trkpt>
      <trkpt lat="43.94828" lon="2.49314">
        <ele>335</ele>
        <time>2017-06-26T07:20:28Z</time>
      </trkpt>
      <trkpt lat="43.94834" lon="2.49318">
        <ele>335</ele>
        <time>2017-06-26T07:20:31Z</time>
      </trkpt>
      <trkpt lat="43.94839" lon="2.49322">
        <ele>335</ele>
        <time>2017-06-26T07:20:34Z</time>
      </trkpt>
      <trkpt lat="43.94843" lon="2.49325">
        <ele>336</ele>
        <time>2017-06-26T07:20:36Z</time>
      </trkpt>
      <trkpt lat="43.94848" lon="2.49328">
        <ele>337</ele>
        <time>2017-06-26T07:20:38Z</time>
      </trkpt>
      <trkpt lat="43.94852" lon="2.49332">
        <ele>339</ele>
        <time>2017-06-26T07:20:40Z</time>
      </trkpt>
      <trkpt lat="43.94857" lon="2.49335">
        <ele>340</ele>
        <time>2017-06-26T07:20:42Z</time>
      </trkpt>
      <trkpt lat="43.94861" lon="2.49339">
        <ele>340</ele>
        <time>2017-06-26T07:20:44Z</time>
      </trkpt>
      <trkpt lat="43.94865" lon="2.49343">
        <ele>341</ele>
        <time>2017-06-26T07:20:46Z</time>
      </trkpt>
      <trkpt lat="43.94869" lon="2.49348">
        <ele>341</ele>
        <time>2017-06-26T07:20:48Z</time>
      </trkpt>
      <trkpt lat="43.94875" lon="2.49352">
        <ele>342</ele>
        <time>2017-06-26T07:20:51Z</time>
      </trkpt>
      <trkpt lat="43.9488" lon="2.49351">
        <ele>342</ele>
        <time>2017-06-26T07:20:54Z</time>
      </trkpt>
      <trkpt lat="43.94885" lon="2.49348">
        <ele>342</ele>
        <time>2017-06-26T07:20:58Z</time>
      </trkpt>
      <trkpt lat="43.94888" lon="2.49344">
        <ele>343</ele>
        <time>2017-06-26T07:21:05Z</time>
      </trkpt>
    </trkseg>
  </trk>
</gpx>